<?xml version="1.0" encoding="UTF-8" standalone="no" ?>
<gpx xmlns="http://www.topografix.com/GPX/1/1" xmlns:xsi="http://www.w3.org/2001/XMLSchema-instance" xsi:schemaLocation="http://www.topografix.com/GPX/1/1 http://www.topografix.com/GPX/1/1/gpx.xsd" version="1.1" creator="VisuGPX - https://www.visugpx.com">
  <metadata>
    <name>Creuse Mézin 23-09-2022</name>
  </metadata>
  <trk>
    <name><![CDATA[T2022-09-23-16-56]]></name>
    <extensions>
      <line xmlns="http://www.topografix.com/GPX/gpx_style/0/2">
        <color>0000FF</color>
        <width>4</width>
      </line>
    </extensions>
    <trkseg>
      <trkpt lat="44.07498" lon="0.2268">
        <ele>144.9</ele>
        <time>2022-09-23T12:58:16Z</time>
      </trkpt>
      <trkpt lat="44.07494" lon="0.22688">
        <ele>144.7</ele>
        <time>2022-09-23T12:58:53Z</time>
      </trkpt>
      <trkpt lat="44.07492" lon="0.22694">
        <ele>144.8</ele>
        <time>2022-09-23T12:58:58Z</time>
      </trkpt>
      <trkpt lat="44.07497" lon="0.2269">
        <ele>143.7</ele>
        <time>2022-09-23T13:01:23Z</time>
      </trkpt>
      <trkpt lat="44.07498" lon="0.22697">
        <ele>143.2</ele>
        <time>2022-09-23T13:03:13Z</time>
      </trkpt>
      <trkpt lat="44.07497" lon="0.22703">
        <ele>145.6</ele>
        <time>2022-09-23T13:03:22Z</time>
      </trkpt>
      <trkpt lat="44.07501" lon="0.22702">
        <ele>145.6</ele>
        <time>2022-09-23T13:03:42Z</time>
      </trkpt>
      <trkpt lat="44.07506" lon="0.22701">
        <ele>144.9</ele>
        <time>2022-09-23T13:03:45Z</time>
      </trkpt>
      <trkpt lat="44.07513" lon="0.227">
        <ele>143.4</ele>
        <time>2022-09-23T13:03:56Z</time>
      </trkpt>
      <trkpt lat="44.07518" lon="0.22701">
        <ele>142.7</ele>
        <time>2022-09-23T13:03:59Z</time>
      </trkpt>
      <trkpt lat="44.07524" lon="0.22701">
        <ele>141.7</ele>
        <time>2022-09-23T13:04:04Z</time>
      </trkpt>
      <trkpt lat="44.0753" lon="0.22702">
        <ele>141</ele>
        <time>2022-09-23T13:04:07Z</time>
      </trkpt>
      <trkpt lat="44.07534" lon="0.22705">
        <ele>140.2</ele>
        <time>2022-09-23T13:04:12Z</time>
      </trkpt>
      <trkpt lat="44.07538" lon="0.22707">
        <ele>139.7</ele>
        <time>2022-09-23T13:04:15Z</time>
      </trkpt>
      <trkpt lat="44.07543" lon="0.2271">
        <ele>138.9</ele>
        <time>2022-09-23T13:04:19Z</time>
      </trkpt>
      <trkpt lat="44.07548" lon="0.22711">
        <ele>138.2</ele>
        <time>2022-09-23T13:04:23Z</time>
      </trkpt>
      <trkpt lat="44.07552" lon="0.22714">
        <ele>137.3</ele>
        <time>2022-09-23T13:04:30Z</time>
      </trkpt>
      <trkpt lat="44.07557" lon="0.22716">
        <ele>136.8</ele>
        <time>2022-09-23T13:04:35Z</time>
      </trkpt>
      <trkpt lat="44.07563" lon="0.22719">
        <ele>136.6</ele>
        <time>2022-09-23T13:04:38Z</time>
      </trkpt>
      <trkpt lat="44.07569" lon="0.22721">
        <ele>136.5</ele>
        <time>2022-09-23T13:04:41Z</time>
      </trkpt>
      <trkpt lat="44.07574" lon="0.22723">
        <ele>136.5</ele>
        <time>2022-09-23T13:04:45Z</time>
      </trkpt>
      <trkpt lat="44.07579" lon="0.22724">
        <ele>137.1</ele>
        <time>2022-09-23T13:04:48Z</time>
      </trkpt>
      <trkpt lat="44.07582" lon="0.2273">
        <ele>137.4</ele>
        <time>2022-09-23T13:04:57Z</time>
      </trkpt>
      <trkpt lat="44.07586" lon="0.22733">
        <ele>136.6</ele>
        <time>2022-09-23T13:05:01Z</time>
      </trkpt>
      <trkpt lat="44.07592" lon="0.22736">
        <ele>136.1</ele>
        <time>2022-09-23T13:05:05Z</time>
      </trkpt>
      <trkpt lat="44.07597" lon="0.22739">
        <ele>135.1</ele>
        <time>2022-09-23T13:05:10Z</time>
      </trkpt>
      <trkpt lat="44.07602" lon="0.22742">
        <ele>134.6</ele>
        <time>2022-09-23T13:05:15Z</time>
      </trkpt>
      <trkpt lat="44.07606" lon="0.22746">
        <ele>134.2</ele>
        <time>2022-09-23T13:05:19Z</time>
      </trkpt>
      <trkpt lat="44.07611" lon="0.22749">
        <ele>134</ele>
        <time>2022-09-23T13:05:23Z</time>
      </trkpt>
      <trkpt lat="44.07616" lon="0.22751">
        <ele>133.9</ele>
        <time>2022-09-23T13:05:27Z</time>
      </trkpt>
      <trkpt lat="44.07621" lon="0.22753">
        <ele>133.6</ele>
        <time>2022-09-23T13:05:32Z</time>
      </trkpt>
      <trkpt lat="44.07625" lon="0.22757">
        <ele>133.9</ele>
        <time>2022-09-23T13:05:38Z</time>
      </trkpt>
      <trkpt lat="44.0763" lon="0.22761">
        <ele>134</ele>
        <time>2022-09-23T13:05:47Z</time>
      </trkpt>
      <trkpt lat="44.07634" lon="0.22766">
        <ele>133.7</ele>
        <time>2022-09-23T13:05:50Z</time>
      </trkpt>
      <trkpt lat="44.07638" lon="0.22769">
        <ele>133.6</ele>
        <time>2022-09-23T13:05:56Z</time>
      </trkpt>
      <trkpt lat="44.07642" lon="0.22772">
        <ele>133.6</ele>
        <time>2022-09-23T13:05:59Z</time>
      </trkpt>
      <trkpt lat="44.07647" lon="0.22775">
        <ele>133.6</ele>
        <time>2022-09-23T13:06:03Z</time>
      </trkpt>
      <trkpt lat="44.07652" lon="0.22777">
        <ele>133.9</ele>
        <time>2022-09-23T13:06:06Z</time>
      </trkpt>
      <trkpt lat="44.07657" lon="0.2278">
        <ele>134.1</ele>
        <time>2022-09-23T13:06:10Z</time>
      </trkpt>
      <trkpt lat="44.07662" lon="0.22783">
        <ele>133.6</ele>
        <time>2022-09-23T13:06:14Z</time>
      </trkpt>
      <trkpt lat="44.07668" lon="0.22787">
        <ele>132.9</ele>
        <time>2022-09-23T13:06:20Z</time>
      </trkpt>
      <trkpt lat="44.07673" lon="0.22791">
        <ele>132.8</ele>
        <time>2022-09-23T13:06:23Z</time>
      </trkpt>
      <trkpt lat="44.07678" lon="0.22793">
        <ele>132.7</ele>
        <time>2022-09-23T13:06:27Z</time>
      </trkpt>
      <trkpt lat="44.07682" lon="0.22796">
        <ele>132.6</ele>
        <time>2022-09-23T13:06:31Z</time>
      </trkpt>
      <trkpt lat="44.07686" lon="0.22799">
        <ele>132.5</ele>
        <time>2022-09-23T13:06:34Z</time>
      </trkpt>
      <trkpt lat="44.07691" lon="0.22802">
        <ele>132.8</ele>
        <time>2022-09-23T13:06:37Z</time>
      </trkpt>
      <trkpt lat="44.07695" lon="0.22805">
        <ele>133</ele>
        <time>2022-09-23T13:06:41Z</time>
      </trkpt>
      <trkpt lat="44.077" lon="0.22808">
        <ele>133.4</ele>
        <time>2022-09-23T13:06:45Z</time>
      </trkpt>
      <trkpt lat="44.07706" lon="0.22813">
        <ele>133.6</ele>
        <time>2022-09-23T13:06:53Z</time>
      </trkpt>
      <trkpt lat="44.07712" lon="0.22817">
        <ele>133.9</ele>
        <time>2022-09-23T13:06:56Z</time>
      </trkpt>
      <trkpt lat="44.07717" lon="0.2282">
        <ele>134.2</ele>
        <time>2022-09-23T13:06:59Z</time>
      </trkpt>
      <trkpt lat="44.07721" lon="0.22824">
        <ele>134.9</ele>
        <time>2022-09-23T13:07:03Z</time>
      </trkpt>
      <trkpt lat="44.07726" lon="0.22827">
        <ele>135.9</ele>
        <time>2022-09-23T13:07:07Z</time>
      </trkpt>
      <trkpt lat="44.07731" lon="0.22829">
        <ele>136.1</ele>
        <time>2022-09-23T13:07:10Z</time>
      </trkpt>
      <trkpt lat="44.07739" lon="0.2283">
        <ele>134.3</ele>
        <time>2022-09-23T13:07:22Z</time>
      </trkpt>
      <trkpt lat="44.07745" lon="0.22833">
        <ele>132.9</ele>
        <time>2022-09-23T13:07:25Z</time>
      </trkpt>
      <trkpt lat="44.07752" lon="0.22834">
        <ele>130.2</ele>
        <time>2022-09-23T13:07:34Z</time>
      </trkpt>
      <trkpt lat="44.07759" lon="0.22836">
        <ele>129.5</ele>
        <time>2022-09-23T13:07:37Z</time>
      </trkpt>
      <trkpt lat="44.07765" lon="0.22839">
        <ele>128.8</ele>
        <time>2022-09-23T13:07:41Z</time>
      </trkpt>
      <trkpt lat="44.07769" lon="0.22841">
        <ele>128.5</ele>
        <time>2022-09-23T13:07:45Z</time>
      </trkpt>
      <trkpt lat="44.07774" lon="0.22847">
        <ele>128.3</ele>
        <time>2022-09-23T13:07:54Z</time>
      </trkpt>
      <trkpt lat="44.07777" lon="0.22851">
        <ele>128.4</ele>
        <time>2022-09-23T13:07:57Z</time>
      </trkpt>
      <trkpt lat="44.07783" lon="0.22856">
        <ele>129</ele>
        <time>2022-09-23T13:08:05Z</time>
      </trkpt>
      <trkpt lat="44.07787" lon="0.2286">
        <ele>129.4</ele>
        <time>2022-09-23T13:08:08Z</time>
      </trkpt>
      <trkpt lat="44.07792" lon="0.22864">
        <ele>130.3</ele>
        <time>2022-09-23T13:08:13Z</time>
      </trkpt>
      <trkpt lat="44.07801" lon="0.22867">
        <ele>131.4</ele>
        <time>2022-09-23T13:08:24Z</time>
      </trkpt>
      <trkpt lat="44.07807" lon="0.22869">
        <ele>131.3</ele>
        <time>2022-09-23T13:08:27Z</time>
      </trkpt>
      <trkpt lat="44.07814" lon="0.22873">
        <ele>130.1</ele>
        <time>2022-09-23T13:08:38Z</time>
      </trkpt>
      <trkpt lat="44.07822" lon="0.22874">
        <ele>129.5</ele>
        <time>2022-09-23T13:08:41Z</time>
      </trkpt>
      <trkpt lat="44.07828" lon="0.22876">
        <ele>129.4</ele>
        <time>2022-09-23T13:08:44Z</time>
      </trkpt>
      <trkpt lat="44.07834" lon="0.22877">
        <ele>129.8</ele>
        <time>2022-09-23T13:08:47Z</time>
      </trkpt>
      <trkpt lat="44.07844" lon="0.22877">
        <ele>130.9</ele>
        <time>2022-09-23T13:08:59Z</time>
      </trkpt>
      <trkpt lat="44.07849" lon="0.22877">
        <ele>130.9</ele>
        <time>2022-09-23T13:09:02Z</time>
      </trkpt>
      <trkpt lat="44.07855" lon="0.22875">
        <ele>130.8</ele>
        <time>2022-09-23T13:09:09Z</time>
      </trkpt>
      <trkpt lat="44.07859" lon="0.22872">
        <ele>130.9</ele>
        <time>2022-09-23T13:09:14Z</time>
      </trkpt>
      <trkpt lat="44.07864" lon="0.22871">
        <ele>131.1</ele>
        <time>2022-09-23T13:09:20Z</time>
      </trkpt>
      <trkpt lat="44.07871" lon="0.22871">
        <ele>131.1</ele>
        <time>2022-09-23T13:09:23Z</time>
      </trkpt>
      <trkpt lat="44.07877" lon="0.22871">
        <ele>131</ele>
        <time>2022-09-23T13:09:26Z</time>
      </trkpt>
      <trkpt lat="44.07884" lon="0.22869">
        <ele>130.3</ele>
        <time>2022-09-23T13:09:33Z</time>
      </trkpt>
      <trkpt lat="44.0789" lon="0.22868">
        <ele>130</ele>
        <time>2022-09-23T13:09:36Z</time>
      </trkpt>
      <trkpt lat="44.07896" lon="0.22868">
        <ele>129.7</ele>
        <time>2022-09-23T13:09:40Z</time>
      </trkpt>
      <trkpt lat="44.07901" lon="0.22868">
        <ele>129.5</ele>
        <time>2022-09-23T13:09:43Z</time>
      </trkpt>
      <trkpt lat="44.07907" lon="0.22869">
        <ele>129.3</ele>
        <time>2022-09-23T13:09:46Z</time>
      </trkpt>
      <trkpt lat="44.07913" lon="0.22869">
        <ele>129.3</ele>
        <time>2022-09-23T13:09:49Z</time>
      </trkpt>
      <trkpt lat="44.07918" lon="0.22869">
        <ele>129.2</ele>
        <time>2022-09-23T13:09:53Z</time>
      </trkpt>
      <trkpt lat="44.07924" lon="0.22867">
        <ele>129.1</ele>
        <time>2022-09-23T13:10:00Z</time>
      </trkpt>
      <trkpt lat="44.07929" lon="0.22866">
        <ele>128.8</ele>
        <time>2022-09-23T13:10:04Z</time>
      </trkpt>
      <trkpt lat="44.07935" lon="0.22865">
        <ele>128.2</ele>
        <time>2022-09-23T13:10:11Z</time>
      </trkpt>
      <trkpt lat="44.07941" lon="0.22865">
        <ele>127.7</ele>
        <time>2022-09-23T13:10:14Z</time>
      </trkpt>
      <trkpt lat="44.07949" lon="0.22864">
        <ele>126.8</ele>
        <time>2022-09-23T13:10:21Z</time>
      </trkpt>
      <trkpt lat="44.07955" lon="0.22862">
        <ele>126.4</ele>
        <time>2022-09-23T13:10:24Z</time>
      </trkpt>
      <trkpt lat="44.07961" lon="0.2286">
        <ele>125.9</ele>
        <time>2022-09-23T13:10:27Z</time>
      </trkpt>
      <trkpt lat="44.07967" lon="0.22859">
        <ele>124.9</ele>
        <time>2022-09-23T13:10:33Z</time>
      </trkpt>
      <trkpt lat="44.07972" lon="0.22859">
        <ele>124</ele>
        <time>2022-09-23T13:10:38Z</time>
      </trkpt>
      <trkpt lat="44.07977" lon="0.22858">
        <ele>123.3</ele>
        <time>2022-09-23T13:10:42Z</time>
      </trkpt>
      <trkpt lat="44.07983" lon="0.22858">
        <ele>122.8</ele>
        <time>2022-09-23T13:10:45Z</time>
      </trkpt>
      <trkpt lat="44.07988" lon="0.22858">
        <ele>122.5</ele>
        <time>2022-09-23T13:10:48Z</time>
      </trkpt>
      <trkpt lat="44.07993" lon="0.22859">
        <ele>121.9</ele>
        <time>2022-09-23T13:10:53Z</time>
      </trkpt>
      <trkpt lat="44.07997" lon="0.22861">
        <ele>121.5</ele>
        <time>2022-09-23T13:10:56Z</time>
      </trkpt>
      <trkpt lat="44.08004" lon="0.22862">
        <ele>120</ele>
        <time>2022-09-23T13:11:08Z</time>
      </trkpt>
      <trkpt lat="44.0801" lon="0.22863">
        <ele>119.4</ele>
        <time>2022-09-23T13:11:11Z</time>
      </trkpt>
      <trkpt lat="44.08016" lon="0.22865">
        <ele>119.1</ele>
        <time>2022-09-23T13:11:14Z</time>
      </trkpt>
      <trkpt lat="44.0802" lon="0.22867">
        <ele>118.8</ele>
        <time>2022-09-23T13:11:17Z</time>
      </trkpt>
      <trkpt lat="44.08025" lon="0.22867">
        <ele>118.3</ele>
        <time>2022-09-23T13:11:22Z</time>
      </trkpt>
      <trkpt lat="44.0803" lon="0.22867">
        <ele>118.1</ele>
        <time>2022-09-23T13:11:25Z</time>
      </trkpt>
      <trkpt lat="44.08035" lon="0.22868">
        <ele>117.8</ele>
        <time>2022-09-23T13:11:28Z</time>
      </trkpt>
      <trkpt lat="44.08039" lon="0.22871">
        <ele>117.5</ele>
        <time>2022-09-23T13:11:32Z</time>
      </trkpt>
      <trkpt lat="44.0804" lon="0.22878">
        <ele>116.9</ele>
        <time>2022-09-23T13:11:36Z</time>
      </trkpt>
      <trkpt lat="44.08037" lon="0.22883">
        <ele>116</ele>
        <time>2022-09-23T13:11:40Z</time>
      </trkpt>
      <trkpt lat="44.08032" lon="0.22889">
        <ele>115.3</ele>
        <time>2022-09-23T13:11:43Z</time>
      </trkpt>
      <trkpt lat="44.08028" lon="0.22894">
        <ele>115</ele>
        <time>2022-09-23T13:11:46Z</time>
      </trkpt>
      <trkpt lat="44.08023" lon="0.22898">
        <ele>114.1</ele>
        <time>2022-09-23T13:11:54Z</time>
      </trkpt>
      <trkpt lat="44.08019" lon="0.22903">
        <ele>113.3</ele>
        <time>2022-09-23T13:11:57Z</time>
      </trkpt>
      <trkpt lat="44.08014" lon="0.22907">
        <ele>112.8</ele>
        <time>2022-09-23T13:12:01Z</time>
      </trkpt>
      <trkpt lat="44.08008" lon="0.22909">
        <ele>112.8</ele>
        <time>2022-09-23T13:12:05Z</time>
      </trkpt>
      <trkpt lat="44.08004" lon="0.22912">
        <ele>112.9</ele>
        <time>2022-09-23T13:12:09Z</time>
      </trkpt>
      <trkpt lat="44.07999" lon="0.22914">
        <ele>112.9</ele>
        <time>2022-09-23T13:12:13Z</time>
      </trkpt>
      <trkpt lat="44.07994" lon="0.22917">
        <ele>112.8</ele>
        <time>2022-09-23T13:12:17Z</time>
      </trkpt>
      <trkpt lat="44.0799" lon="0.2292">
        <ele>112.7</ele>
        <time>2022-09-23T13:12:20Z</time>
      </trkpt>
      <trkpt lat="44.07985" lon="0.22924">
        <ele>112.7</ele>
        <time>2022-09-23T13:12:25Z</time>
      </trkpt>
      <trkpt lat="44.07981" lon="0.22927">
        <ele>113.4</ele>
        <time>2022-09-23T13:12:29Z</time>
      </trkpt>
      <trkpt lat="44.07976" lon="0.2293">
        <ele>114.2</ele>
        <time>2022-09-23T13:12:33Z</time>
      </trkpt>
      <trkpt lat="44.07972" lon="0.22932">
        <ele>115.1</ele>
        <time>2022-09-23T13:12:37Z</time>
      </trkpt>
      <trkpt lat="44.07968" lon="0.22935">
        <ele>115.9</ele>
        <time>2022-09-23T13:12:41Z</time>
      </trkpt>
      <trkpt lat="44.07963" lon="0.22939">
        <ele>116.7</ele>
        <time>2022-09-23T13:12:46Z</time>
      </trkpt>
      <trkpt lat="44.07958" lon="0.22942">
        <ele>117.5</ele>
        <time>2022-09-23T13:12:50Z</time>
      </trkpt>
      <trkpt lat="44.07954" lon="0.22947">
        <ele>118.3</ele>
        <time>2022-09-23T13:12:55Z</time>
      </trkpt>
      <trkpt lat="44.07949" lon="0.22949">
        <ele>119</ele>
        <time>2022-09-23T13:13:00Z</time>
      </trkpt>
      <trkpt lat="44.07944" lon="0.22951">
        <ele>119.6</ele>
        <time>2022-09-23T13:13:05Z</time>
      </trkpt>
      <trkpt lat="44.0794" lon="0.22954">
        <ele>120</ele>
        <time>2022-09-23T13:13:09Z</time>
      </trkpt>
      <trkpt lat="44.07935" lon="0.22956">
        <ele>120.2</ele>
        <time>2022-09-23T13:13:14Z</time>
      </trkpt>
      <trkpt lat="44.07931" lon="0.22959">
        <ele>120</ele>
        <time>2022-09-23T13:13:18Z</time>
      </trkpt>
      <trkpt lat="44.07926" lon="0.22961">
        <ele>120.2</ele>
        <time>2022-09-23T13:13:22Z</time>
      </trkpt>
      <trkpt lat="44.07922" lon="0.22964">
        <ele>120</ele>
        <time>2022-09-23T13:13:28Z</time>
      </trkpt>
      <trkpt lat="44.07918" lon="0.22967">
        <ele>119.9</ele>
        <time>2022-09-23T13:13:32Z</time>
      </trkpt>
      <trkpt lat="44.07912" lon="0.2297">
        <ele>120.3</ele>
        <time>2022-09-23T13:13:35Z</time>
      </trkpt>
      <trkpt lat="44.07907" lon="0.22972">
        <ele>120.4</ele>
        <time>2022-09-23T13:13:39Z</time>
      </trkpt>
      <trkpt lat="44.07902" lon="0.22976">
        <ele>120.4</ele>
        <time>2022-09-23T13:13:43Z</time>
      </trkpt>
      <trkpt lat="44.07899" lon="0.22979">
        <ele>120.4</ele>
        <time>2022-09-23T13:13:46Z</time>
      </trkpt>
      <trkpt lat="44.07894" lon="0.22982">
        <ele>120.8</ele>
        <time>2022-09-23T13:13:49Z</time>
      </trkpt>
      <trkpt lat="44.07891" lon="0.22986">
        <ele>121.5</ele>
        <time>2022-09-23T13:13:53Z</time>
      </trkpt>
      <trkpt lat="44.07888" lon="0.22992">
        <ele>122.6</ele>
        <time>2022-09-23T13:13:58Z</time>
      </trkpt>
      <trkpt lat="44.07884" lon="0.22997">
        <ele>122.9</ele>
        <time>2022-09-23T13:14:08Z</time>
      </trkpt>
      <trkpt lat="44.07879" lon="0.23003">
        <ele>122.6</ele>
        <time>2022-09-23T13:14:11Z</time>
      </trkpt>
      <trkpt lat="44.07875" lon="0.23007">
        <ele>122.3</ele>
        <time>2022-09-23T13:14:14Z</time>
      </trkpt>
      <trkpt lat="44.07871" lon="0.23012">
        <ele>121.9</ele>
        <time>2022-09-23T13:14:18Z</time>
      </trkpt>
      <trkpt lat="44.07867" lon="0.23017">
        <ele>121.6</ele>
        <time>2022-09-23T13:14:22Z</time>
      </trkpt>
      <trkpt lat="44.07863" lon="0.2302">
        <ele>121.1</ele>
        <time>2022-09-23T13:14:31Z</time>
      </trkpt>
      <trkpt lat="44.07859" lon="0.23023">
        <ele>120.8</ele>
        <time>2022-09-23T13:14:35Z</time>
      </trkpt>
      <trkpt lat="44.07853" lon="0.23024">
        <ele>120.6</ele>
        <time>2022-09-23T13:14:38Z</time>
      </trkpt>
      <trkpt lat="44.07848" lon="0.23026">
        <ele>120.3</ele>
        <time>2022-09-23T13:14:41Z</time>
      </trkpt>
      <trkpt lat="44.07844" lon="0.23028">
        <ele>120.1</ele>
        <time>2022-09-23T13:14:45Z</time>
      </trkpt>
      <trkpt lat="44.07839" lon="0.23032">
        <ele>120.2</ele>
        <time>2022-09-23T13:14:52Z</time>
      </trkpt>
      <trkpt lat="44.07835" lon="0.23036">
        <ele>120.3</ele>
        <time>2022-09-23T13:14:55Z</time>
      </trkpt>
      <trkpt lat="44.0783" lon="0.23042">
        <ele>120.6</ele>
        <time>2022-09-23T13:15:01Z</time>
      </trkpt>
      <trkpt lat="44.07824" lon="0.23048">
        <ele>120.8</ele>
        <time>2022-09-23T13:15:04Z</time>
      </trkpt>
      <trkpt lat="44.07818" lon="0.23055">
        <ele>121</ele>
        <time>2022-09-23T13:15:12Z</time>
      </trkpt>
      <trkpt lat="44.07812" lon="0.2306">
        <ele>120.7</ele>
        <time>2022-09-23T13:15:15Z</time>
      </trkpt>
      <trkpt lat="44.07808" lon="0.23064">
        <ele>120.3</ele>
        <time>2022-09-23T13:15:20Z</time>
      </trkpt>
      <trkpt lat="44.07803" lon="0.23067">
        <ele>119.8</ele>
        <time>2022-09-23T13:15:27Z</time>
      </trkpt>
      <trkpt lat="44.07798" lon="0.2307">
        <ele>119.4</ele>
        <time>2022-09-23T13:15:30Z</time>
      </trkpt>
      <trkpt lat="44.07791" lon="0.23075">
        <ele>118.7</ele>
        <time>2022-09-23T13:15:37Z</time>
      </trkpt>
      <trkpt lat="44.07787" lon="0.23078">
        <ele>118.3</ele>
        <time>2022-09-23T13:15:40Z</time>
      </trkpt>
      <trkpt lat="44.07782" lon="0.23084">
        <ele>117.3</ele>
        <time>2022-09-23T13:15:47Z</time>
      </trkpt>
      <trkpt lat="44.07777" lon="0.2309">
        <ele>117</ele>
        <time>2022-09-23T13:15:50Z</time>
      </trkpt>
      <trkpt lat="44.07772" lon="0.23098">
        <ele>116</ele>
        <time>2022-09-23T13:15:57Z</time>
      </trkpt>
      <trkpt lat="44.07768" lon="0.23102">
        <ele>115.2</ele>
        <time>2022-09-23T13:16:00Z</time>
      </trkpt>
      <trkpt lat="44.07763" lon="0.23106">
        <ele>113.7</ele>
        <time>2022-09-23T13:16:10Z</time>
      </trkpt>
      <trkpt lat="44.07757" lon="0.2311">
        <ele>113.4</ele>
        <time>2022-09-23T13:16:13Z</time>
      </trkpt>
      <trkpt lat="44.07751" lon="0.23115">
        <ele>113</ele>
        <time>2022-09-23T13:16:21Z</time>
      </trkpt>
      <trkpt lat="44.07746" lon="0.23119">
        <ele>113.1</ele>
        <time>2022-09-23T13:16:24Z</time>
      </trkpt>
      <trkpt lat="44.0774" lon="0.23125">
        <ele>113.4</ele>
        <time>2022-09-23T13:16:33Z</time>
      </trkpt>
      <trkpt lat="44.07735" lon="0.2313">
        <ele>113.4</ele>
        <time>2022-09-23T13:16:36Z</time>
      </trkpt>
      <trkpt lat="44.07729" lon="0.23137">
        <ele>113.2</ele>
        <time>2022-09-23T13:16:44Z</time>
      </trkpt>
      <trkpt lat="44.07723" lon="0.23144">
        <ele>113.3</ele>
        <time>2022-09-23T13:16:47Z</time>
      </trkpt>
      <trkpt lat="44.07719" lon="0.23148">
        <ele>113.3</ele>
        <time>2022-09-23T13:16:53Z</time>
      </trkpt>
      <trkpt lat="44.07716" lon="0.23153">
        <ele>113.3</ele>
        <time>2022-09-23T13:16:59Z</time>
      </trkpt>
      <trkpt lat="44.07712" lon="0.23159">
        <ele>113.3</ele>
        <time>2022-09-23T13:17:02Z</time>
      </trkpt>
      <trkpt lat="44.07706" lon="0.23164">
        <ele>113</ele>
        <time>2022-09-23T13:17:11Z</time>
      </trkpt>
      <trkpt lat="44.07702" lon="0.23168">
        <ele>112.8</ele>
        <time>2022-09-23T13:17:15Z</time>
      </trkpt>
      <trkpt lat="44.07697" lon="0.23171">
        <ele>112</ele>
        <time>2022-09-23T13:17:26Z</time>
      </trkpt>
      <trkpt lat="44.07692" lon="0.23175">
        <ele>111.3</ele>
        <time>2022-09-23T13:17:29Z</time>
      </trkpt>
      <trkpt lat="44.07686" lon="0.23181">
        <ele>109.7</ele>
        <time>2022-09-23T13:17:36Z</time>
      </trkpt>
      <trkpt lat="44.07682" lon="0.23186">
        <ele>108.8</ele>
        <time>2022-09-23T13:17:39Z</time>
      </trkpt>
      <trkpt lat="44.07678" lon="0.23193">
        <ele>107.3</ele>
        <time>2022-09-23T13:17:45Z</time>
      </trkpt>
      <trkpt lat="44.07674" lon="0.23201">
        <ele>106.3</ele>
        <time>2022-09-23T13:17:48Z</time>
      </trkpt>
      <trkpt lat="44.0767" lon="0.23212">
        <ele>104.4</ele>
        <time>2022-09-23T13:17:56Z</time>
      </trkpt>
      <trkpt lat="44.07667" lon="0.23221">
        <ele>103.6</ele>
        <time>2022-09-23T13:17:59Z</time>
      </trkpt>
      <trkpt lat="44.07665" lon="0.2323">
        <ele>102.8</ele>
        <time>2022-09-23T13:18:02Z</time>
      </trkpt>
      <trkpt lat="44.07663" lon="0.23236">
        <ele>102.1</ele>
        <time>2022-09-23T13:18:05Z</time>
      </trkpt>
      <trkpt lat="44.0766" lon="0.23244">
        <ele>101.4</ele>
        <time>2022-09-23T13:18:08Z</time>
      </trkpt>
      <trkpt lat="44.07659" lon="0.2325">
        <ele>101</ele>
        <time>2022-09-23T13:18:11Z</time>
      </trkpt>
      <trkpt lat="44.07656" lon="0.23259">
        <ele>100</ele>
        <time>2022-09-23T13:18:22Z</time>
      </trkpt>
      <trkpt lat="44.07655" lon="0.23265">
        <ele>99.4</ele>
        <time>2022-09-23T13:18:25Z</time>
      </trkpt>
      <trkpt lat="44.07652" lon="0.23274">
        <ele>97.8</ele>
        <time>2022-09-23T13:18:34Z</time>
      </trkpt>
      <trkpt lat="44.07652" lon="0.23283">
        <ele>97.1</ele>
        <time>2022-09-23T13:18:37Z</time>
      </trkpt>
      <trkpt lat="44.0765" lon="0.23294">
        <ele>95.7</ele>
        <time>2022-09-23T13:18:45Z</time>
      </trkpt>
      <trkpt lat="44.07647" lon="0.23303">
        <ele>95.1</ele>
        <time>2022-09-23T13:18:48Z</time>
      </trkpt>
      <trkpt lat="44.07644" lon="0.23315">
        <ele>94.6</ele>
        <time>2022-09-23T13:18:58Z</time>
      </trkpt>
      <trkpt lat="44.07642" lon="0.23323">
        <ele>95.1</ele>
        <time>2022-09-23T13:19:01Z</time>
      </trkpt>
      <trkpt lat="44.07638" lon="0.23332">
        <ele>96.1</ele>
        <time>2022-09-23T13:19:07Z</time>
      </trkpt>
      <trkpt lat="44.07635" lon="0.23338">
        <ele>96.5</ele>
        <time>2022-09-23T13:19:10Z</time>
      </trkpt>
      <trkpt lat="44.07633" lon="0.23347">
        <ele>97.1</ele>
        <time>2022-09-23T13:19:21Z</time>
      </trkpt>
      <trkpt lat="44.07631" lon="0.23355">
        <ele>97.1</ele>
        <time>2022-09-23T13:19:24Z</time>
      </trkpt>
      <trkpt lat="44.07627" lon="0.23364">
        <ele>96.8</ele>
        <time>2022-09-23T13:19:31Z</time>
      </trkpt>
      <trkpt lat="44.07624" lon="0.23371">
        <ele>96.5</ele>
        <time>2022-09-23T13:19:34Z</time>
      </trkpt>
      <trkpt lat="44.07621" lon="0.23378">
        <ele>96.3</ele>
        <time>2022-09-23T13:19:37Z</time>
      </trkpt>
      <trkpt lat="44.07617" lon="0.23386">
        <ele>96.1</ele>
        <time>2022-09-23T13:19:41Z</time>
      </trkpt>
      <trkpt lat="44.07614" lon="0.23392">
        <ele>96</ele>
        <time>2022-09-23T13:19:44Z</time>
      </trkpt>
      <trkpt lat="44.07613" lon="0.23398">
        <ele>96.1</ele>
        <time>2022-09-23T13:19:47Z</time>
      </trkpt>
      <trkpt lat="44.07611" lon="0.23407">
        <ele>96.5</ele>
        <time>2022-09-23T13:19:56Z</time>
      </trkpt>
      <trkpt lat="44.07611" lon="0.23414">
        <ele>96.8</ele>
        <time>2022-09-23T13:19:59Z</time>
      </trkpt>
      <trkpt lat="44.0761" lon="0.23423">
        <ele>96.9</ele>
        <time>2022-09-23T13:20:08Z</time>
      </trkpt>
      <trkpt lat="44.07609" lon="0.23431">
        <ele>96.7</ele>
        <time>2022-09-23T13:20:11Z</time>
      </trkpt>
      <trkpt lat="44.07609" lon="0.23437">
        <ele>96.4</ele>
        <time>2022-09-23T13:20:15Z</time>
      </trkpt>
      <trkpt lat="44.07609" lon="0.23444">
        <ele>96.5</ele>
        <time>2022-09-23T13:20:18Z</time>
      </trkpt>
      <trkpt lat="44.07608" lon="0.23452">
        <ele>96.7</ele>
        <time>2022-09-23T13:20:23Z</time>
      </trkpt>
      <trkpt lat="44.07606" lon="0.23458">
        <ele>97</ele>
        <time>2022-09-23T13:20:27Z</time>
      </trkpt>
      <trkpt lat="44.07605" lon="0.23466">
        <ele>97</ele>
        <time>2022-09-23T13:20:36Z</time>
      </trkpt>
      <trkpt lat="44.07605" lon="0.23475">
        <ele>96.6</ele>
        <time>2022-09-23T13:20:39Z</time>
      </trkpt>
      <trkpt lat="44.07605" lon="0.23481">
        <ele>96.5</ele>
        <time>2022-09-23T13:20:42Z</time>
      </trkpt>
      <trkpt lat="44.07604" lon="0.23488">
        <ele>96.6</ele>
        <time>2022-09-23T13:20:46Z</time>
      </trkpt>
      <trkpt lat="44.07602" lon="0.235">
        <ele>97.2</ele>
        <time>2022-09-23T13:20:58Z</time>
      </trkpt>
      <trkpt lat="44.076" lon="0.23509">
        <ele>97.4</ele>
        <time>2022-09-23T13:21:01Z</time>
      </trkpt>
      <trkpt lat="44.07598" lon="0.23515">
        <ele>97.5</ele>
        <time>2022-09-23T13:21:04Z</time>
      </trkpt>
      <trkpt lat="44.07597" lon="0.23526">
        <ele>98</ele>
        <time>2022-09-23T13:21:14Z</time>
      </trkpt>
      <trkpt lat="44.07596" lon="0.23536">
        <ele>98.3</ele>
        <time>2022-09-23T13:21:17Z</time>
      </trkpt>
      <trkpt lat="44.07594" lon="0.23548">
        <ele>98.3</ele>
        <time>2022-09-23T13:21:28Z</time>
      </trkpt>
      <trkpt lat="44.07592" lon="0.23557">
        <ele>98.1</ele>
        <time>2022-09-23T13:21:31Z</time>
      </trkpt>
      <trkpt lat="44.07591" lon="0.23567">
        <ele>97.6</ele>
        <time>2022-09-23T13:21:38Z</time>
      </trkpt>
      <trkpt lat="44.0759" lon="0.23575">
        <ele>97.1</ele>
        <time>2022-09-23T13:21:41Z</time>
      </trkpt>
      <trkpt lat="44.0759" lon="0.23586">
        <ele>95.6</ele>
        <time>2022-09-23T13:21:53Z</time>
      </trkpt>
      <trkpt lat="44.0759" lon="0.23594">
        <ele>95</ele>
        <time>2022-09-23T13:21:56Z</time>
      </trkpt>
      <trkpt lat="44.0759" lon="0.23604">
        <ele>93.4</ele>
        <time>2022-09-23T13:22:05Z</time>
      </trkpt>
      <trkpt lat="44.07591" lon="0.23614">
        <ele>92.7</ele>
        <time>2022-09-23T13:22:08Z</time>
      </trkpt>
      <trkpt lat="44.07588" lon="0.23624">
        <ele>91.8</ele>
        <time>2022-09-23T13:22:16Z</time>
      </trkpt>
      <trkpt lat="44.07586" lon="0.23632">
        <ele>91.8</ele>
        <time>2022-09-23T13:22:19Z</time>
      </trkpt>
      <trkpt lat="44.07586" lon="0.2364">
        <ele>91.9</ele>
        <time>2022-09-23T13:22:22Z</time>
      </trkpt>
      <trkpt lat="44.07585" lon="0.23647">
        <ele>92</ele>
        <time>2022-09-23T13:22:25Z</time>
      </trkpt>
      <trkpt lat="44.07586" lon="0.23659">
        <ele>91.8</ele>
        <time>2022-09-23T13:22:38Z</time>
      </trkpt>
      <trkpt lat="44.07587" lon="0.23667">
        <ele>91.6</ele>
        <time>2022-09-23T13:22:41Z</time>
      </trkpt>
      <trkpt lat="44.07587" lon="0.23675">
        <ele>91.7</ele>
        <time>2022-09-23T13:22:44Z</time>
      </trkpt>
      <trkpt lat="44.07587" lon="0.23686">
        <ele>91.7</ele>
        <time>2022-09-23T13:22:57Z</time>
      </trkpt>
      <trkpt lat="44.07588" lon="0.23692">
        <ele>91.8</ele>
        <time>2022-09-23T13:23:00Z</time>
      </trkpt>
      <trkpt lat="44.07588" lon="0.23702">
        <ele>91.2</ele>
        <time>2022-09-23T13:23:13Z</time>
      </trkpt>
      <trkpt lat="44.07587" lon="0.23709">
        <ele>90.4</ele>
        <time>2022-09-23T13:23:16Z</time>
      </trkpt>
      <trkpt lat="44.07585" lon="0.23718">
        <ele>88.4</ele>
        <time>2022-09-23T13:23:22Z</time>
      </trkpt>
      <trkpt lat="44.07583" lon="0.23728">
        <ele>86.9</ele>
        <time>2022-09-23T13:23:25Z</time>
      </trkpt>
      <trkpt lat="44.07582" lon="0.23738">
        <ele>83.8</ele>
        <time>2022-09-23T13:23:35Z</time>
      </trkpt>
      <trkpt lat="44.07582" lon="0.23749">
        <ele>82.5</ele>
        <time>2022-09-23T13:23:38Z</time>
      </trkpt>
      <trkpt lat="44.07581" lon="0.23755">
        <ele>81.1</ele>
        <time>2022-09-23T13:23:42Z</time>
      </trkpt>
      <trkpt lat="44.07581" lon="0.23763">
        <ele>79.1</ele>
        <time>2022-09-23T13:23:50Z</time>
      </trkpt>
      <trkpt lat="44.0758" lon="0.2377">
        <ele>78.1</ele>
        <time>2022-09-23T13:23:53Z</time>
      </trkpt>
      <trkpt lat="44.07578" lon="0.23779">
        <ele>75.6</ele>
        <time>2022-09-23T13:24:03Z</time>
      </trkpt>
      <trkpt lat="44.07575" lon="0.23786">
        <ele>74.4</ele>
        <time>2022-09-23T13:24:06Z</time>
      </trkpt>
      <trkpt lat="44.07574" lon="0.23795">
        <ele>72.9</ele>
        <time>2022-09-23T13:24:13Z</time>
      </trkpt>
      <trkpt lat="44.07574" lon="0.23804">
        <ele>72.6</ele>
        <time>2022-09-23T13:24:16Z</time>
      </trkpt>
      <trkpt lat="44.07572" lon="0.23814">
        <ele>71.2</ele>
        <time>2022-09-23T13:24:27Z</time>
      </trkpt>
      <trkpt lat="44.07571" lon="0.23821">
        <ele>70.2</ele>
        <time>2022-09-23T13:24:30Z</time>
      </trkpt>
      <trkpt lat="44.0757" lon="0.23831">
        <ele>67.7</ele>
        <time>2022-09-23T13:24:40Z</time>
      </trkpt>
      <trkpt lat="44.07569" lon="0.2384">
        <ele>66.7</ele>
        <time>2022-09-23T13:24:43Z</time>
      </trkpt>
      <trkpt lat="44.07568" lon="0.2385">
        <ele>65.3</ele>
        <time>2022-09-23T13:24:54Z</time>
      </trkpt>
      <trkpt lat="44.07567" lon="0.23858">
        <ele>65.3</ele>
        <time>2022-09-23T13:24:57Z</time>
      </trkpt>
      <trkpt lat="44.07565" lon="0.23867">
        <ele>65.4</ele>
        <time>2022-09-23T13:25:06Z</time>
      </trkpt>
      <trkpt lat="44.07563" lon="0.23876">
        <ele>65.2</ele>
        <time>2022-09-23T13:25:09Z</time>
      </trkpt>
      <trkpt lat="44.07562" lon="0.23883">
        <ele>65</ele>
        <time>2022-09-23T13:25:12Z</time>
      </trkpt>
      <trkpt lat="44.07562" lon="0.23893">
        <ele>64.7</ele>
        <time>2022-09-23T13:25:20Z</time>
      </trkpt>
      <trkpt lat="44.07562" lon="0.239">
        <ele>64.4</ele>
        <time>2022-09-23T13:25:23Z</time>
      </trkpt>
      <trkpt lat="44.07561" lon="0.2391">
        <ele>63.8</ele>
        <time>2022-09-23T13:25:30Z</time>
      </trkpt>
      <trkpt lat="44.07561" lon="0.23918">
        <ele>63.4</ele>
        <time>2022-09-23T13:25:33Z</time>
      </trkpt>
      <trkpt lat="44.07562" lon="0.23927">
        <ele>62.4</ele>
        <time>2022-09-23T13:25:42Z</time>
      </trkpt>
      <trkpt lat="44.07562" lon="0.23935">
        <ele>61.8</ele>
        <time>2022-09-23T13:25:45Z</time>
      </trkpt>
      <trkpt lat="44.07562" lon="0.23946">
        <ele>60.8</ele>
        <time>2022-09-23T13:25:53Z</time>
      </trkpt>
      <trkpt lat="44.07563" lon="0.23955">
        <ele>60.7</ele>
        <time>2022-09-23T13:25:56Z</time>
      </trkpt>
      <trkpt lat="44.07562" lon="0.23965">
        <ele>61.4</ele>
        <time>2022-09-23T13:26:05Z</time>
      </trkpt>
      <trkpt lat="44.07561" lon="0.23972">
        <ele>62</ele>
        <time>2022-09-23T13:26:08Z</time>
      </trkpt>
      <trkpt lat="44.07559" lon="0.23981">
        <ele>63.7</ele>
        <time>2022-09-23T13:26:20Z</time>
      </trkpt>
      <trkpt lat="44.07557" lon="0.23993">
        <ele>68.5</ele>
        <time>2022-09-23T13:29:15Z</time>
      </trkpt>
      <trkpt lat="44.07557" lon="0.23999">
        <ele>72</ele>
        <time>2022-09-23T13:29:20Z</time>
      </trkpt>
      <trkpt lat="44.07557" lon="0.23993">
        <ele>75.5</ele>
        <time>2022-09-23T13:29:31Z</time>
      </trkpt>
      <trkpt lat="44.07561" lon="0.23996">
        <ele>80</ele>
        <time>2022-09-23T13:32:45Z</time>
      </trkpt>
      <trkpt lat="44.07566" lon="0.23999">
        <ele>84</ele>
        <time>2022-09-23T13:32:49Z</time>
      </trkpt>
      <trkpt lat="44.07562" lon="0.23994">
        <ele>82</ele>
        <time>2022-09-23T13:35:33Z</time>
      </trkpt>
      <trkpt lat="44.07558" lon="0.23991">
        <ele>80.6</ele>
        <time>2022-09-23T13:35:36Z</time>
      </trkpt>
      <trkpt lat="44.07558" lon="0.23999">
        <ele>78.3</ele>
        <time>2022-09-23T13:36:46Z</time>
      </trkpt>
      <trkpt lat="44.07559" lon="0.24005">
        <ele>79.1</ele>
        <time>2022-09-23T13:36:49Z</time>
      </trkpt>
      <trkpt lat="44.0756" lon="0.24014">
        <ele>80.4</ele>
        <time>2022-09-23T13:37:13Z</time>
      </trkpt>
      <trkpt lat="44.07559" lon="0.24021">
        <ele>80.4</ele>
        <time>2022-09-23T13:37:17Z</time>
      </trkpt>
      <trkpt lat="44.07561" lon="0.24029">
        <ele>79.9</ele>
        <time>2022-09-23T13:37:24Z</time>
      </trkpt>
      <trkpt lat="44.07563" lon="0.24036">
        <ele>79.8</ele>
        <time>2022-09-23T13:37:27Z</time>
      </trkpt>
      <trkpt lat="44.07564" lon="0.24042">
        <ele>80</ele>
        <time>2022-09-23T13:37:35Z</time>
      </trkpt>
      <trkpt lat="44.07565" lon="0.24049">
        <ele>79.9</ele>
        <time>2022-09-23T13:37:39Z</time>
      </trkpt>
      <trkpt lat="44.07565" lon="0.24058">
        <ele>79.7</ele>
        <time>2022-09-23T13:37:42Z</time>
      </trkpt>
      <trkpt lat="44.07566" lon="0.24065">
        <ele>79.8</ele>
        <time>2022-09-23T13:37:47Z</time>
      </trkpt>
      <trkpt lat="44.07568" lon="0.24071">
        <ele>80.1</ele>
        <time>2022-09-23T13:37:50Z</time>
      </trkpt>
      <trkpt lat="44.0757" lon="0.24078">
        <ele>80.4</ele>
        <time>2022-09-23T13:37:56Z</time>
      </trkpt>
      <trkpt lat="44.07573" lon="0.24086">
        <ele>80.6</ele>
        <time>2022-09-23T13:37:59Z</time>
      </trkpt>
      <trkpt lat="44.07574" lon="0.24092">
        <ele>80.9</ele>
        <time>2022-09-23T13:38:02Z</time>
      </trkpt>
      <trkpt lat="44.07573" lon="0.24099">
        <ele>80.8</ele>
        <time>2022-09-23T13:38:06Z</time>
      </trkpt>
      <trkpt lat="44.07572" lon="0.24107">
        <ele>79.6</ele>
        <time>2022-09-23T13:38:14Z</time>
      </trkpt>
      <trkpt lat="44.07572" lon="0.24116">
        <ele>78.7</ele>
        <time>2022-09-23T13:38:17Z</time>
      </trkpt>
      <trkpt lat="44.07573" lon="0.24128">
        <ele>76.4</ele>
        <time>2022-09-23T13:38:28Z</time>
      </trkpt>
      <trkpt lat="44.07574" lon="0.24137">
        <ele>75.3</ele>
        <time>2022-09-23T13:38:31Z</time>
      </trkpt>
      <trkpt lat="44.07575" lon="0.24144">
        <ele>74.5</ele>
        <time>2022-09-23T13:38:34Z</time>
      </trkpt>
      <trkpt lat="44.07574" lon="0.24151">
        <ele>73.8</ele>
        <time>2022-09-23T13:38:38Z</time>
      </trkpt>
      <trkpt lat="44.07574" lon="0.24158">
        <ele>72.9</ele>
        <time>2022-09-23T13:38:42Z</time>
      </trkpt>
      <trkpt lat="44.07575" lon="0.24166">
        <ele>71.7</ele>
        <time>2022-09-23T13:38:47Z</time>
      </trkpt>
      <trkpt lat="44.07576" lon="0.24173">
        <ele>70.9</ele>
        <time>2022-09-23T13:38:52Z</time>
      </trkpt>
      <trkpt lat="44.07578" lon="0.2418">
        <ele>70.3</ele>
        <time>2022-09-23T13:38:57Z</time>
      </trkpt>
      <trkpt lat="44.0758" lon="0.24186">
        <ele>70.4</ele>
        <time>2022-09-23T13:39:00Z</time>
      </trkpt>
      <trkpt lat="44.07583" lon="0.24193">
        <ele>70.1</ele>
        <time>2022-09-23T13:39:07Z</time>
      </trkpt>
      <trkpt lat="44.07587" lon="0.24198">
        <ele>69.9</ele>
        <time>2022-09-23T13:39:11Z</time>
      </trkpt>
      <trkpt lat="44.07592" lon="0.24204">
        <ele>68.7</ele>
        <time>2022-09-23T13:39:20Z</time>
      </trkpt>
      <trkpt lat="44.07597" lon="0.24211">
        <ele>68.1</ele>
        <time>2022-09-23T13:39:23Z</time>
      </trkpt>
      <trkpt lat="44.07601" lon="0.24215">
        <ele>67.8</ele>
        <time>2022-09-23T13:39:26Z</time>
      </trkpt>
      <trkpt lat="44.07606" lon="0.24224">
        <ele>67</ele>
        <time>2022-09-23T13:39:36Z</time>
      </trkpt>
      <trkpt lat="44.0761" lon="0.2423">
        <ele>67.3</ele>
        <time>2022-09-23T13:39:39Z</time>
      </trkpt>
      <trkpt lat="44.07614" lon="0.24238">
        <ele>67.2</ele>
        <time>2022-09-23T13:39:46Z</time>
      </trkpt>
      <trkpt lat="44.07618" lon="0.24244">
        <ele>66.8</ele>
        <time>2022-09-23T13:39:49Z</time>
      </trkpt>
      <trkpt lat="44.07622" lon="0.24248">
        <ele>66.8</ele>
        <time>2022-09-23T13:39:52Z</time>
      </trkpt>
      <trkpt lat="44.07627" lon="0.24253">
        <ele>67</ele>
        <time>2022-09-23T13:39:56Z</time>
      </trkpt>
      <trkpt lat="44.0763" lon="0.24257">
        <ele>67.3</ele>
        <time>2022-09-23T13:40:00Z</time>
      </trkpt>
      <trkpt lat="44.07633" lon="0.24261">
        <ele>67.3</ele>
        <time>2022-09-23T13:40:05Z</time>
      </trkpt>
      <trkpt lat="44.07637" lon="0.24267">
        <ele>67.7</ele>
        <time>2022-09-23T13:40:08Z</time>
      </trkpt>
      <trkpt lat="44.07639" lon="0.24275">
        <ele>67.5</ele>
        <time>2022-09-23T13:40:13Z</time>
      </trkpt>
      <trkpt lat="44.0764" lon="0.24281">
        <ele>67.4</ele>
        <time>2022-09-23T13:40:16Z</time>
      </trkpt>
      <trkpt lat="44.07641" lon="0.24288">
        <ele>67.4</ele>
        <time>2022-09-23T13:40:19Z</time>
      </trkpt>
      <trkpt lat="44.07642" lon="0.24294">
        <ele>67.9</ele>
        <time>2022-09-23T13:40:23Z</time>
      </trkpt>
      <trkpt lat="44.07641" lon="0.24301">
        <ele>68.5</ele>
        <time>2022-09-23T13:40:27Z</time>
      </trkpt>
      <trkpt lat="44.0764" lon="0.2431">
        <ele>69.2</ele>
        <time>2022-09-23T13:40:33Z</time>
      </trkpt>
      <trkpt lat="44.07639" lon="0.24316">
        <ele>68.9</ele>
        <time>2022-09-23T13:40:36Z</time>
      </trkpt>
      <trkpt lat="44.07637" lon="0.24324">
        <ele>68.6</ele>
        <time>2022-09-23T13:40:40Z</time>
      </trkpt>
      <trkpt lat="44.07636" lon="0.24332">
        <ele>67.7</ele>
        <time>2022-09-23T13:40:47Z</time>
      </trkpt>
      <trkpt lat="44.07634" lon="0.24339">
        <ele>67.6</ele>
        <time>2022-09-23T13:40:51Z</time>
      </trkpt>
      <trkpt lat="44.07633" lon="0.24346">
        <ele>67.7</ele>
        <time>2022-09-23T13:40:55Z</time>
      </trkpt>
      <trkpt lat="44.07633" lon="0.24354">
        <ele>68.2</ele>
        <time>2022-09-23T13:40:59Z</time>
      </trkpt>
      <trkpt lat="44.07633" lon="0.2436">
        <ele>68.1</ele>
        <time>2022-09-23T13:41:03Z</time>
      </trkpt>
      <trkpt lat="44.07635" lon="0.24368">
        <ele>68</ele>
        <time>2022-09-23T13:41:08Z</time>
      </trkpt>
      <trkpt lat="44.07638" lon="0.24374">
        <ele>68.3</ele>
        <time>2022-09-23T13:41:11Z</time>
      </trkpt>
      <trkpt lat="44.07641" lon="0.24379">
        <ele>68.6</ele>
        <time>2022-09-23T13:41:14Z</time>
      </trkpt>
      <trkpt lat="44.07644" lon="0.24384">
        <ele>68.5</ele>
        <time>2022-09-23T13:41:18Z</time>
      </trkpt>
      <trkpt lat="44.07648" lon="0.24389">
        <ele>67.9</ele>
        <time>2022-09-23T13:41:22Z</time>
      </trkpt>
      <trkpt lat="44.07652" lon="0.24393">
        <ele>67.1</ele>
        <time>2022-09-23T13:41:27Z</time>
      </trkpt>
      <trkpt lat="44.07656" lon="0.24395">
        <ele>66</ele>
        <time>2022-09-23T13:41:34Z</time>
      </trkpt>
      <trkpt lat="44.07663" lon="0.24398">
        <ele>65.6</ele>
        <time>2022-09-23T13:41:37Z</time>
      </trkpt>
      <trkpt lat="44.07668" lon="0.244">
        <ele>65.5</ele>
        <time>2022-09-23T13:41:40Z</time>
      </trkpt>
      <trkpt lat="44.07674" lon="0.24407">
        <ele>64</ele>
        <time>2022-09-23T13:41:51Z</time>
      </trkpt>
      <trkpt lat="44.07676" lon="0.24413">
        <ele>62.7</ele>
        <time>2022-09-23T13:41:55Z</time>
      </trkpt>
      <trkpt lat="44.07674" lon="0.24419">
        <ele>61.7</ele>
        <time>2022-09-23T13:41:59Z</time>
      </trkpt>
      <trkpt lat="44.07672" lon="0.24425">
        <ele>60.9</ele>
        <time>2022-09-23T13:42:03Z</time>
      </trkpt>
      <trkpt lat="44.07669" lon="0.24431">
        <ele>60.6</ele>
        <time>2022-09-23T13:42:07Z</time>
      </trkpt>
      <trkpt lat="44.07667" lon="0.24438">
        <ele>60.3</ele>
        <time>2022-09-23T13:42:12Z</time>
      </trkpt>
      <trkpt lat="44.07663" lon="0.24444">
        <ele>59.2</ele>
        <time>2022-09-23T13:42:18Z</time>
      </trkpt>
      <trkpt lat="44.0766" lon="0.24449">
        <ele>58.3</ele>
        <time>2022-09-23T13:42:21Z</time>
      </trkpt>
      <trkpt lat="44.07657" lon="0.24454">
        <ele>57</ele>
        <time>2022-09-23T13:42:24Z</time>
      </trkpt>
      <trkpt lat="44.07654" lon="0.2446">
        <ele>56</ele>
        <time>2022-09-23T13:42:28Z</time>
      </trkpt>
      <trkpt lat="44.07652" lon="0.24466">
        <ele>55</ele>
        <time>2022-09-23T13:42:32Z</time>
      </trkpt>
      <trkpt lat="44.07649" lon="0.24473">
        <ele>54.2</ele>
        <time>2022-09-23T13:42:36Z</time>
      </trkpt>
      <trkpt lat="44.07646" lon="0.24479">
        <ele>54</ele>
        <time>2022-09-23T13:42:40Z</time>
      </trkpt>
      <trkpt lat="44.07645" lon="0.24485">
        <ele>54.2</ele>
        <time>2022-09-23T13:42:44Z</time>
      </trkpt>
      <trkpt lat="44.07643" lon="0.24492">
        <ele>54.8</ele>
        <time>2022-09-23T13:42:48Z</time>
      </trkpt>
      <trkpt lat="44.0764" lon="0.24499">
        <ele>55.2</ele>
        <time>2022-09-23T13:42:52Z</time>
      </trkpt>
      <trkpt lat="44.07637" lon="0.24505">
        <ele>55.2</ele>
        <time>2022-09-23T13:42:56Z</time>
      </trkpt>
      <trkpt lat="44.07634" lon="0.2451">
        <ele>55.1</ele>
        <time>2022-09-23T13:43:00Z</time>
      </trkpt>
      <trkpt lat="44.07631" lon="0.24515">
        <ele>54.9</ele>
        <time>2022-09-23T13:43:06Z</time>
      </trkpt>
      <trkpt lat="44.07627" lon="0.2452">
        <ele>54.9</ele>
        <time>2022-09-23T13:43:12Z</time>
      </trkpt>
      <trkpt lat="44.07623" lon="0.24526">
        <ele>54.7</ele>
        <time>2022-09-23T13:43:15Z</time>
      </trkpt>
      <trkpt lat="44.07618" lon="0.24534">
        <ele>54.3</ele>
        <time>2022-09-23T13:43:25Z</time>
      </trkpt>
      <trkpt lat="44.07614" lon="0.24541">
        <ele>54.2</ele>
        <time>2022-09-23T13:43:28Z</time>
      </trkpt>
      <trkpt lat="44.07609" lon="0.24549">
        <ele>54.2</ele>
        <time>2022-09-23T13:43:34Z</time>
      </trkpt>
      <trkpt lat="44.07605" lon="0.24559">
        <ele>54.6</ele>
        <time>2022-09-23T13:43:37Z</time>
      </trkpt>
      <trkpt lat="44.07602" lon="0.24564">
        <ele>55.1</ele>
        <time>2022-09-23T13:43:41Z</time>
      </trkpt>
      <trkpt lat="44.07599" lon="0.24569">
        <ele>55.9</ele>
        <time>2022-09-23T13:43:44Z</time>
      </trkpt>
      <trkpt lat="44.07594" lon="0.24577">
        <ele>56.9</ele>
        <time>2022-09-23T13:43:55Z</time>
      </trkpt>
      <trkpt lat="44.0759" lon="0.24584">
        <ele>57.2</ele>
        <time>2022-09-23T13:43:58Z</time>
      </trkpt>
      <trkpt lat="44.07587" lon="0.2459">
        <ele>58</ele>
        <time>2022-09-23T13:44:01Z</time>
      </trkpt>
      <trkpt lat="44.07584" lon="0.24595">
        <ele>58.5</ele>
        <time>2022-09-23T13:44:05Z</time>
      </trkpt>
      <trkpt lat="44.07581" lon="0.24601">
        <ele>58.8</ele>
        <time>2022-09-23T13:44:10Z</time>
      </trkpt>
      <trkpt lat="44.07578" lon="0.24606">
        <ele>58.9</ele>
        <time>2022-09-23T13:44:14Z</time>
      </trkpt>
      <trkpt lat="44.07574" lon="0.24614">
        <ele>59.1</ele>
        <time>2022-09-23T13:44:21Z</time>
      </trkpt>
      <trkpt lat="44.0757" lon="0.24621">
        <ele>59.2</ele>
        <time>2022-09-23T13:44:24Z</time>
      </trkpt>
      <trkpt lat="44.07567" lon="0.24627">
        <ele>59.7</ele>
        <time>2022-09-23T13:44:27Z</time>
      </trkpt>
      <trkpt lat="44.07564" lon="0.24633">
        <ele>60.2</ele>
        <time>2022-09-23T13:44:31Z</time>
      </trkpt>
      <trkpt lat="44.0756" lon="0.24638">
        <ele>61</ele>
        <time>2022-09-23T13:44:36Z</time>
      </trkpt>
      <trkpt lat="44.07557" lon="0.24643">
        <ele>61.5</ele>
        <time>2022-09-23T13:44:39Z</time>
      </trkpt>
      <trkpt lat="44.07553" lon="0.24646">
        <ele>62.1</ele>
        <time>2022-09-23T13:44:43Z</time>
      </trkpt>
      <trkpt lat="44.07548" lon="0.24647">
        <ele>61.6</ele>
        <time>2022-09-23T13:44:47Z</time>
      </trkpt>
      <trkpt lat="44.07543" lon="0.24648">
        <ele>60</ele>
        <time>2022-09-23T13:44:53Z</time>
      </trkpt>
      <trkpt lat="44.07537" lon="0.2465">
        <ele>58.9</ele>
        <time>2022-09-23T13:44:57Z</time>
      </trkpt>
      <trkpt lat="44.07532" lon="0.24651">
        <ele>58.2</ele>
        <time>2022-09-23T13:45:02Z</time>
      </trkpt>
      <trkpt lat="44.07527" lon="0.24652">
        <ele>57.8</ele>
        <time>2022-09-23T13:45:06Z</time>
      </trkpt>
      <trkpt lat="44.07522" lon="0.24653">
        <ele>57.5</ele>
        <time>2022-09-23T13:45:10Z</time>
      </trkpt>
      <trkpt lat="44.07517" lon="0.24656">
        <ele>57.4</ele>
        <time>2022-09-23T13:45:14Z</time>
      </trkpt>
      <trkpt lat="44.07512" lon="0.24658">
        <ele>57.7</ele>
        <time>2022-09-23T13:45:18Z</time>
      </trkpt>
      <trkpt lat="44.07507" lon="0.24661">
        <ele>58.1</ele>
        <time>2022-09-23T13:45:22Z</time>
      </trkpt>
      <trkpt lat="44.07502" lon="0.24662">
        <ele>58.1</ele>
        <time>2022-09-23T13:45:25Z</time>
      </trkpt>
      <trkpt lat="44.07497" lon="0.24664">
        <ele>58.4</ele>
        <time>2022-09-23T13:45:29Z</time>
      </trkpt>
      <trkpt lat="44.07492" lon="0.24667">
        <ele>58.6</ele>
        <time>2022-09-23T13:45:36Z</time>
      </trkpt>
      <trkpt lat="44.07488" lon="0.24668">
        <ele>58.4</ele>
        <time>2022-09-23T13:45:40Z</time>
      </trkpt>
      <trkpt lat="44.07483" lon="0.2467">
        <ele>58</ele>
        <time>2022-09-23T13:45:44Z</time>
      </trkpt>
      <trkpt lat="44.07479" lon="0.24673">
        <ele>57</ele>
        <time>2022-09-23T13:45:48Z</time>
      </trkpt>
      <trkpt lat="44.07478" lon="0.24667">
        <ele>53.6</ele>
        <time>2022-09-23T13:46:02Z</time>
      </trkpt>
      <trkpt lat="44.07482" lon="0.2466">
        <ele>50.9</ele>
        <time>2022-09-23T13:46:11Z</time>
      </trkpt>
      <trkpt lat="44.07487" lon="0.24653">
        <ele>50</ele>
        <time>2022-09-23T13:46:14Z</time>
      </trkpt>
      <trkpt lat="44.07491" lon="0.24648">
        <ele>49.3</ele>
        <time>2022-09-23T13:46:17Z</time>
      </trkpt>
      <trkpt lat="44.07495" lon="0.24643">
        <ele>49.2</ele>
        <time>2022-09-23T13:46:21Z</time>
      </trkpt>
      <trkpt lat="44.07498" lon="0.24638">
        <ele>49.3</ele>
        <time>2022-09-23T13:46:26Z</time>
      </trkpt>
      <trkpt lat="44.075" lon="0.24631">
        <ele>48.8</ele>
        <time>2022-09-23T13:46:40Z</time>
      </trkpt>
      <trkpt lat="44.07502" lon="0.24625">
        <ele>48</ele>
        <time>2022-09-23T13:46:45Z</time>
      </trkpt>
      <trkpt lat="44.07498" lon="0.24628">
        <ele>50</ele>
        <time>2022-09-23T13:48:06Z</time>
      </trkpt>
      <trkpt lat="44.07495" lon="0.24623">
        <ele>50.6</ele>
        <time>2022-09-23T13:49:15Z</time>
      </trkpt>
      <trkpt lat="44.07493" lon="0.24618">
        <ele>50.1</ele>
        <time>2022-09-23T13:49:20Z</time>
      </trkpt>
      <trkpt lat="44.07497" lon="0.2462">
        <ele>51.2</ele>
        <time>2022-09-23T13:49:44Z</time>
      </trkpt>
      <trkpt lat="44.07497" lon="0.24627">
        <ele>51.2</ele>
        <time>2022-09-23T13:50:16Z</time>
      </trkpt>
      <trkpt lat="44.07497" lon="0.24633">
        <ele>51</ele>
        <time>2022-09-23T13:50:19Z</time>
      </trkpt>
      <trkpt lat="44.07497" lon="0.24626">
        <ele>52.1</ele>
        <time>2022-09-23T13:51:41Z</time>
      </trkpt>
      <trkpt lat="44.07492" lon="0.24622">
        <ele>54.9</ele>
        <time>2022-09-23T13:56:43Z</time>
      </trkpt>
      <trkpt lat="44.07487" lon="0.24619">
        <ele>55.6</ele>
        <time>2022-09-23T13:56:46Z</time>
      </trkpt>
      <trkpt lat="44.0748" lon="0.24615">
        <ele>57</ele>
        <time>2022-09-23T13:56:59Z</time>
      </trkpt>
      <trkpt lat="44.07475" lon="0.24613">
        <ele>57.2</ele>
        <time>2022-09-23T13:57:02Z</time>
      </trkpt>
      <trkpt lat="44.07469" lon="0.24612">
        <ele>57.4</ele>
        <time>2022-09-23T13:57:05Z</time>
      </trkpt>
      <trkpt lat="44.07463" lon="0.24613">
        <ele>57.5</ele>
        <time>2022-09-23T13:57:08Z</time>
      </trkpt>
      <trkpt lat="44.07457" lon="0.24615">
        <ele>57.4</ele>
        <time>2022-09-23T13:57:13Z</time>
      </trkpt>
      <trkpt lat="44.07451" lon="0.24614">
        <ele>56.9</ele>
        <time>2022-09-23T13:57:22Z</time>
      </trkpt>
      <trkpt lat="44.07445" lon="0.24614">
        <ele>56.5</ele>
        <time>2022-09-23T13:57:25Z</time>
      </trkpt>
      <trkpt lat="44.07438" lon="0.24613">
        <ele>55.9</ele>
        <time>2022-09-23T13:57:35Z</time>
      </trkpt>
      <trkpt lat="44.07432" lon="0.24613">
        <ele>55.6</ele>
        <time>2022-09-23T13:57:38Z</time>
      </trkpt>
      <trkpt lat="44.07427" lon="0.24612">
        <ele>55.2</ele>
        <time>2022-09-23T13:57:43Z</time>
      </trkpt>
      <trkpt lat="44.07422" lon="0.24609">
        <ele>55.1</ele>
        <time>2022-09-23T13:57:47Z</time>
      </trkpt>
      <trkpt lat="44.07418" lon="0.24606">
        <ele>55.5</ele>
        <time>2022-09-23T13:57:51Z</time>
      </trkpt>
      <trkpt lat="44.07413" lon="0.24604">
        <ele>56.1</ele>
        <time>2022-09-23T13:57:56Z</time>
      </trkpt>
      <trkpt lat="44.07406" lon="0.24603">
        <ele>56.2</ele>
        <time>2022-09-23T13:58:07Z</time>
      </trkpt>
      <trkpt lat="44.07399" lon="0.24603">
        <ele>55.4</ele>
        <time>2022-09-23T13:58:10Z</time>
      </trkpt>
      <trkpt lat="44.07393" lon="0.24605">
        <ele>53.9</ele>
        <time>2022-09-23T13:58:14Z</time>
      </trkpt>
      <trkpt lat="44.07388" lon="0.24606">
        <ele>52.7</ele>
        <time>2022-09-23T13:58:17Z</time>
      </trkpt>
      <trkpt lat="44.07383" lon="0.24607">
        <ele>50.3</ele>
        <time>2022-09-23T13:58:26Z</time>
      </trkpt>
      <trkpt lat="44.07378" lon="0.24605">
        <ele>49.2</ele>
        <time>2022-09-23T13:58:29Z</time>
      </trkpt>
      <trkpt lat="44.07373" lon="0.24604">
        <ele>48.4</ele>
        <time>2022-09-23T13:58:32Z</time>
      </trkpt>
      <trkpt lat="44.07365" lon="0.24602">
        <ele>47</ele>
        <time>2022-09-23T13:58:40Z</time>
      </trkpt>
      <trkpt lat="44.07359" lon="0.24601">
        <ele>46.6</ele>
        <time>2022-09-23T13:58:43Z</time>
      </trkpt>
      <trkpt lat="44.07354" lon="0.24599">
        <ele>46.2</ele>
        <time>2022-09-23T13:58:47Z</time>
      </trkpt>
      <trkpt lat="44.0735" lon="0.24596">
        <ele>46</ele>
        <time>2022-09-23T13:58:51Z</time>
      </trkpt>
      <trkpt lat="44.07345" lon="0.24597">
        <ele>46</ele>
        <time>2022-09-23T13:58:58Z</time>
      </trkpt>
      <trkpt lat="44.07341" lon="0.246">
        <ele>46</ele>
        <time>2022-09-23T13:59:01Z</time>
      </trkpt>
      <trkpt lat="44.07336" lon="0.24602">
        <ele>45.6</ele>
        <time>2022-09-23T13:59:04Z</time>
      </trkpt>
      <trkpt lat="44.07331" lon="0.246">
        <ele>45.2</ele>
        <time>2022-09-23T13:59:07Z</time>
      </trkpt>
      <trkpt lat="44.07324" lon="0.24599">
        <ele>44.7</ele>
        <time>2022-09-23T13:59:13Z</time>
      </trkpt>
      <trkpt lat="44.0732" lon="0.246">
        <ele>44.3</ele>
        <time>2022-09-23T13:59:18Z</time>
      </trkpt>
      <trkpt lat="44.07315" lon="0.24599">
        <ele>43.8</ele>
        <time>2022-09-23T13:59:22Z</time>
      </trkpt>
      <trkpt lat="44.07309" lon="0.24599">
        <ele>43.6</ele>
        <time>2022-09-23T13:59:30Z</time>
      </trkpt>
      <trkpt lat="44.07303" lon="0.24598">
        <ele>43.8</ele>
        <time>2022-09-23T13:59:33Z</time>
      </trkpt>
      <trkpt lat="44.07298" lon="0.24598">
        <ele>44.3</ele>
        <time>2022-09-23T13:59:36Z</time>
      </trkpt>
      <trkpt lat="44.07293" lon="0.24596">
        <ele>45.2</ele>
        <time>2022-09-23T13:59:40Z</time>
      </trkpt>
      <trkpt lat="44.07288" lon="0.24595">
        <ele>46.6</ele>
        <time>2022-09-23T13:59:44Z</time>
      </trkpt>
      <trkpt lat="44.07283" lon="0.24594">
        <ele>48.3</ele>
        <time>2022-09-23T13:59:49Z</time>
      </trkpt>
      <trkpt lat="44.07277" lon="0.24593">
        <ele>49.3</ele>
        <time>2022-09-23T13:59:58Z</time>
      </trkpt>
      <trkpt lat="44.07271" lon="0.24593">
        <ele>49.4</ele>
        <time>2022-09-23T14:00:01Z</time>
      </trkpt>
      <trkpt lat="44.07266" lon="0.24592">
        <ele>49.4</ele>
        <time>2022-09-23T14:00:06Z</time>
      </trkpt>
      <trkpt lat="44.07262" lon="0.24592">
        <ele>49.5</ele>
        <time>2022-09-23T14:00:09Z</time>
      </trkpt>
      <trkpt lat="44.07254" lon="0.2459">
        <ele>49.7</ele>
        <time>2022-09-23T14:00:20Z</time>
      </trkpt>
      <trkpt lat="44.07248" lon="0.24588">
        <ele>50</ele>
        <time>2022-09-23T14:00:23Z</time>
      </trkpt>
      <trkpt lat="44.07241" lon="0.24588">
        <ele>49.8</ele>
        <time>2022-09-23T14:00:30Z</time>
      </trkpt>
      <trkpt lat="44.07235" lon="0.24588">
        <ele>49</ele>
        <time>2022-09-23T14:00:33Z</time>
      </trkpt>
      <trkpt lat="44.07231" lon="0.24586">
        <ele>47.4</ele>
        <time>2022-09-23T14:00:39Z</time>
      </trkpt>
      <trkpt lat="44.07226" lon="0.24587">
        <ele>45.8</ele>
        <time>2022-09-23T14:00:42Z</time>
      </trkpt>
      <trkpt lat="44.07219" lon="0.24588">
        <ele>41.9</ele>
        <time>2022-09-23T14:00:53Z</time>
      </trkpt>
      <trkpt lat="44.07212" lon="0.24591">
        <ele>40.9</ele>
        <time>2022-09-23T14:00:56Z</time>
      </trkpt>
      <trkpt lat="44.07206" lon="0.24597">
        <ele>39.5</ele>
        <time>2022-09-23T14:01:04Z</time>
      </trkpt>
      <trkpt lat="44.072" lon="0.24602">
        <ele>39.1</ele>
        <time>2022-09-23T14:01:07Z</time>
      </trkpt>
      <trkpt lat="44.07195" lon="0.24604">
        <ele>39</ele>
        <time>2022-09-23T14:01:10Z</time>
      </trkpt>
      <trkpt lat="44.07191" lon="0.24608">
        <ele>39.8</ele>
        <time>2022-09-23T14:01:13Z</time>
      </trkpt>
      <trkpt lat="44.07186" lon="0.24611">
        <ele>41.4</ele>
        <time>2022-09-23T14:01:17Z</time>
      </trkpt>
      <trkpt lat="44.07181" lon="0.24614">
        <ele>43.7</ele>
        <time>2022-09-23T14:01:29Z</time>
      </trkpt>
      <trkpt lat="44.07175" lon="0.24619">
        <ele>44.6</ele>
        <time>2022-09-23T14:01:32Z</time>
      </trkpt>
      <trkpt lat="44.07171" lon="0.24623">
        <ele>45.8</ele>
        <time>2022-09-23T14:01:36Z</time>
      </trkpt>
      <trkpt lat="44.07165" lon="0.24625">
        <ele>47.5</ele>
        <time>2022-09-23T14:01:49Z</time>
      </trkpt>
      <trkpt lat="44.0716" lon="0.24629">
        <ele>48.2</ele>
        <time>2022-09-23T14:01:52Z</time>
      </trkpt>
      <trkpt lat="44.07153" lon="0.24637">
        <ele>48.5</ele>
        <time>2022-09-23T14:02:00Z</time>
      </trkpt>
      <trkpt lat="44.07146" lon="0.24644">
        <ele>48.2</ele>
        <time>2022-09-23T14:02:03Z</time>
      </trkpt>
      <trkpt lat="44.07141" lon="0.24648">
        <ele>48.1</ele>
        <time>2022-09-23T14:02:06Z</time>
      </trkpt>
      <trkpt lat="44.07135" lon="0.24651">
        <ele>48.2</ele>
        <time>2022-09-23T14:02:09Z</time>
      </trkpt>
      <trkpt lat="44.07131" lon="0.24654">
        <ele>48.9</ele>
        <time>2022-09-23T14:02:15Z</time>
      </trkpt>
      <trkpt lat="44.07127" lon="0.24659">
        <ele>48.7</ele>
        <time>2022-09-23T14:02:29Z</time>
      </trkpt>
      <trkpt lat="44.0712" lon="0.24666">
        <ele>48.9</ele>
        <time>2022-09-23T14:02:32Z</time>
      </trkpt>
      <trkpt lat="44.07115" lon="0.24671">
        <ele>48.9</ele>
        <time>2022-09-23T14:02:35Z</time>
      </trkpt>
      <trkpt lat="44.07079" lon="0.24715">
        <ele>51.7</ele>
        <time>2022-09-23T14:03:17Z</time>
      </trkpt>
      <trkpt lat="44.07073" lon="0.24723">
        <ele>52.3</ele>
        <time>2022-09-23T14:03:32Z</time>
      </trkpt>
      <trkpt lat="44.07069" lon="0.24731">
        <ele>51.6</ele>
        <time>2022-09-23T14:03:35Z</time>
      </trkpt>
      <trkpt lat="44.07067" lon="0.24736">
        <ele>51.2</ele>
        <time>2022-09-23T14:03:38Z</time>
      </trkpt>
      <trkpt lat="44.07063" lon="0.24741">
        <ele>51</ele>
        <time>2022-09-23T14:03:41Z</time>
      </trkpt>
      <trkpt lat="44.07059" lon="0.24747">
        <ele>51</ele>
        <time>2022-09-23T14:03:44Z</time>
      </trkpt>
      <trkpt lat="44.07056" lon="0.24753">
        <ele>51.1</ele>
        <time>2022-09-23T14:03:47Z</time>
      </trkpt>
      <trkpt lat="44.07053" lon="0.24761">
        <ele>51.4</ele>
        <time>2022-09-23T14:03:52Z</time>
      </trkpt>
      <trkpt lat="44.07047" lon="0.24769">
        <ele>52.7</ele>
        <time>2022-09-23T14:04:03Z</time>
      </trkpt>
      <trkpt lat="44.07043" lon="0.24775">
        <ele>53.4</ele>
        <time>2022-09-23T14:04:06Z</time>
      </trkpt>
      <trkpt lat="44.07039" lon="0.24779">
        <ele>54.2</ele>
        <time>2022-09-23T14:04:12Z</time>
      </trkpt>
      <trkpt lat="44.07034" lon="0.24781">
        <ele>54.7</ele>
        <time>2022-09-23T14:04:19Z</time>
      </trkpt>
      <trkpt lat="44.0703" lon="0.24784">
        <ele>55.1</ele>
        <time>2022-09-23T14:04:22Z</time>
      </trkpt>
      <trkpt lat="44.07025" lon="0.24785">
        <ele>56</ele>
        <time>2022-09-23T14:04:27Z</time>
      </trkpt>
      <trkpt lat="44.0702" lon="0.24786">
        <ele>57</ele>
        <time>2022-09-23T14:04:31Z</time>
      </trkpt>
      <trkpt lat="44.07014" lon="0.24784">
        <ele>59.2</ele>
        <time>2022-09-23T14:04:43Z</time>
      </trkpt>
      <trkpt lat="44.07009" lon="0.24782">
        <ele>59.7</ele>
        <time>2022-09-23T14:04:46Z</time>
      </trkpt>
      <trkpt lat="44.07005" lon="0.24779">
        <ele>60.6</ele>
        <time>2022-09-23T14:04:49Z</time>
      </trkpt>
      <trkpt lat="44.06999" lon="0.24776">
        <ele>61.4</ele>
        <time>2022-09-23T14:04:52Z</time>
      </trkpt>
      <trkpt lat="44.06995" lon="0.24772">
        <ele>62</ele>
        <time>2022-09-23T14:04:56Z</time>
      </trkpt>
      <trkpt lat="44.06987" lon="0.24769">
        <ele>62.2</ele>
        <time>2022-09-23T14:05:10Z</time>
      </trkpt>
      <trkpt lat="44.0698" lon="0.24767">
        <ele>62</ele>
        <time>2022-09-23T14:05:13Z</time>
      </trkpt>
      <trkpt lat="44.06975" lon="0.24764">
        <ele>62.1</ele>
        <time>2022-09-23T14:05:17Z</time>
      </trkpt>
      <trkpt lat="44.0697" lon="0.24763">
        <ele>62.8</ele>
        <time>2022-09-23T14:05:23Z</time>
      </trkpt>
      <trkpt lat="44.06967" lon="0.24758">
        <ele>62.9</ele>
        <time>2022-09-23T14:05:28Z</time>
      </trkpt>
      <trkpt lat="44.06963" lon="0.24753">
        <ele>62.7</ele>
        <time>2022-09-23T14:05:31Z</time>
      </trkpt>
      <trkpt lat="44.06955" lon="0.24753">
        <ele>66.7</ele>
        <time>2022-09-23T14:06:49Z</time>
      </trkpt>
      <trkpt lat="44.0695" lon="0.24754">
        <ele>66.9</ele>
        <time>2022-09-23T14:06:52Z</time>
      </trkpt>
      <trkpt lat="44.06954" lon="0.24756">
        <ele>67.3</ele>
        <time>2022-09-23T14:09:25Z</time>
      </trkpt>
      <trkpt lat="44.06952" lon="0.2475">
        <ele>67.7</ele>
        <time>2022-09-23T14:11:14Z</time>
      </trkpt>
      <trkpt lat="44.06946" lon="0.24742">
        <ele>67.9</ele>
        <time>2022-09-23T14:11:28Z</time>
      </trkpt>
      <trkpt lat="44.06942" lon="0.24739">
        <ele>67.6</ele>
        <time>2022-09-23T14:11:31Z</time>
      </trkpt>
      <trkpt lat="44.06935" lon="0.24736">
        <ele>67.8</ele>
        <time>2022-09-23T14:11:39Z</time>
      </trkpt>
      <trkpt lat="44.0693" lon="0.24734">
        <ele>68.2</ele>
        <time>2022-09-23T14:11:42Z</time>
      </trkpt>
      <trkpt lat="44.06925" lon="0.24731">
        <ele>68.7</ele>
        <time>2022-09-23T14:11:45Z</time>
      </trkpt>
      <trkpt lat="44.06922" lon="0.24725">
        <ele>69.4</ele>
        <time>2022-09-23T14:11:49Z</time>
      </trkpt>
      <trkpt lat="44.06918" lon="0.2472">
        <ele>70</ele>
        <time>2022-09-23T14:11:53Z</time>
      </trkpt>
      <trkpt lat="44.06913" lon="0.24717">
        <ele>70.5</ele>
        <time>2022-09-23T14:11:58Z</time>
      </trkpt>
      <trkpt lat="44.06907" lon="0.24711">
        <ele>71</ele>
        <time>2022-09-23T14:12:11Z</time>
      </trkpt>
      <trkpt lat="44.06901" lon="0.24707">
        <ele>70.9</ele>
        <time>2022-09-23T14:12:14Z</time>
      </trkpt>
      <trkpt lat="44.06896" lon="0.24704">
        <ele>70.8</ele>
        <time>2022-09-23T14:12:18Z</time>
      </trkpt>
      <trkpt lat="44.06891" lon="0.24701">
        <ele>70.3</ele>
        <time>2022-09-23T14:12:22Z</time>
      </trkpt>
      <trkpt lat="44.06887" lon="0.24698">
        <ele>69.9</ele>
        <time>2022-09-23T14:12:27Z</time>
      </trkpt>
      <trkpt lat="44.06883" lon="0.24695">
        <ele>69.5</ele>
        <time>2022-09-23T14:12:33Z</time>
      </trkpt>
      <trkpt lat="44.06876" lon="0.2469">
        <ele>69</ele>
        <time>2022-09-23T14:12:42Z</time>
      </trkpt>
      <trkpt lat="44.06872" lon="0.24687">
        <ele>68.7</ele>
        <time>2022-09-23T14:12:45Z</time>
      </trkpt>
      <trkpt lat="44.06868" lon="0.24682">
        <ele>68.3</ele>
        <time>2022-09-23T14:12:50Z</time>
      </trkpt>
      <trkpt lat="44.06864" lon="0.24677">
        <ele>68.1</ele>
        <time>2022-09-23T14:12:55Z</time>
      </trkpt>
      <trkpt lat="44.0686" lon="0.24673">
        <ele>68</ele>
        <time>2022-09-23T14:13:01Z</time>
      </trkpt>
      <trkpt lat="44.06855" lon="0.24669">
        <ele>68.3</ele>
        <time>2022-09-23T14:13:04Z</time>
      </trkpt>
      <trkpt lat="44.0685" lon="0.24665">
        <ele>68.4</ele>
        <time>2022-09-23T14:13:08Z</time>
      </trkpt>
      <trkpt lat="44.06847" lon="0.24661">
        <ele>68.7</ele>
        <time>2022-09-23T14:13:12Z</time>
      </trkpt>
      <trkpt lat="44.06843" lon="0.24657">
        <ele>69</ele>
        <time>2022-09-23T14:13:16Z</time>
      </trkpt>
      <trkpt lat="44.06839" lon="0.24653">
        <ele>69.3</ele>
        <time>2022-09-23T14:13:21Z</time>
      </trkpt>
      <trkpt lat="44.06834" lon="0.24648">
        <ele>69.5</ele>
        <time>2022-09-23T14:13:26Z</time>
      </trkpt>
      <trkpt lat="44.06831" lon="0.24644">
        <ele>69.3</ele>
        <time>2022-09-23T14:13:29Z</time>
      </trkpt>
      <trkpt lat="44.06827" lon="0.2464">
        <ele>68.9</ele>
        <time>2022-09-23T14:13:33Z</time>
      </trkpt>
      <trkpt lat="44.06823" lon="0.24636">
        <ele>68</ele>
        <time>2022-09-23T14:13:38Z</time>
      </trkpt>
      <trkpt lat="44.06819" lon="0.24633">
        <ele>67.4</ele>
        <time>2022-09-23T14:13:42Z</time>
      </trkpt>
      <trkpt lat="44.06815" lon="0.24629">
        <ele>67.1</ele>
        <time>2022-09-23T14:13:46Z</time>
      </trkpt>
      <trkpt lat="44.06811" lon="0.24627">
        <ele>66.9</ele>
        <time>2022-09-23T14:13:50Z</time>
      </trkpt>
      <trkpt lat="44.06806" lon="0.24623">
        <ele>66.8</ele>
        <time>2022-09-23T14:13:55Z</time>
      </trkpt>
      <trkpt lat="44.06802" lon="0.24618">
        <ele>67.1</ele>
        <time>2022-09-23T14:14:00Z</time>
      </trkpt>
      <trkpt lat="44.06797" lon="0.24615">
        <ele>67.5</ele>
        <time>2022-09-23T14:14:07Z</time>
      </trkpt>
      <trkpt lat="44.06792" lon="0.24612">
        <ele>67.6</ele>
        <time>2022-09-23T14:14:12Z</time>
      </trkpt>
      <trkpt lat="44.06787" lon="0.24609">
        <ele>67.8</ele>
        <time>2022-09-23T14:14:16Z</time>
      </trkpt>
      <trkpt lat="44.06781" lon="0.24606">
        <ele>67.8</ele>
        <time>2022-09-23T14:14:36Z</time>
      </trkpt>
      <trkpt lat="44.06776" lon="0.24605">
        <ele>67.4</ele>
        <time>2022-09-23T14:14:39Z</time>
      </trkpt>
      <trkpt lat="44.0677" lon="0.24606">
        <ele>65.9</ele>
        <time>2022-09-23T14:14:46Z</time>
      </trkpt>
      <trkpt lat="44.06765" lon="0.24608">
        <ele>64.8</ele>
        <time>2022-09-23T14:14:49Z</time>
      </trkpt>
      <trkpt lat="44.06758" lon="0.24612">
        <ele>62.5</ele>
        <time>2022-09-23T14:14:55Z</time>
      </trkpt>
      <trkpt lat="44.06749" lon="0.24618">
        <ele>60.9</ele>
        <time>2022-09-23T14:14:58Z</time>
      </trkpt>
      <trkpt lat="44.06744" lon="0.24623">
        <ele>59.4</ele>
        <time>2022-09-23T14:15:01Z</time>
      </trkpt>
      <trkpt lat="44.06738" lon="0.24626">
        <ele>58.6</ele>
        <time>2022-09-23T14:15:04Z</time>
      </trkpt>
      <trkpt lat="44.06733" lon="0.2463">
        <ele>58.3</ele>
        <time>2022-09-23T14:15:07Z</time>
      </trkpt>
      <trkpt lat="44.06729" lon="0.24634">
        <ele>57.9</ele>
        <time>2022-09-23T14:15:12Z</time>
      </trkpt>
      <trkpt lat="44.06725" lon="0.24638">
        <ele>57.8</ele>
        <time>2022-09-23T14:15:17Z</time>
      </trkpt>
      <trkpt lat="44.06721" lon="0.24643">
        <ele>57.7</ele>
        <time>2022-09-23T14:15:23Z</time>
      </trkpt>
      <trkpt lat="44.06715" lon="0.24648">
        <ele>57.8</ele>
        <time>2022-09-23T14:15:26Z</time>
      </trkpt>
      <trkpt lat="44.06712" lon="0.24652">
        <ele>57.9</ele>
        <time>2022-09-23T14:15:29Z</time>
      </trkpt>
      <trkpt lat="44.06706" lon="0.24658">
        <ele>58.6</ele>
        <time>2022-09-23T14:15:36Z</time>
      </trkpt>
      <trkpt lat="44.06701" lon="0.24662">
        <ele>59.1</ele>
        <time>2022-09-23T14:15:39Z</time>
      </trkpt>
      <trkpt lat="44.06696" lon="0.24664">
        <ele>59.5</ele>
        <time>2022-09-23T14:15:44Z</time>
      </trkpt>
      <trkpt lat="44.06692" lon="0.24668">
        <ele>59.7</ele>
        <time>2022-09-23T14:15:47Z</time>
      </trkpt>
      <trkpt lat="44.06688" lon="0.24673">
        <ele>59.9</ele>
        <time>2022-09-23T14:15:50Z</time>
      </trkpt>
      <trkpt lat="44.06684" lon="0.24678">
        <ele>60.2</ele>
        <time>2022-09-23T14:15:53Z</time>
      </trkpt>
      <trkpt lat="44.06681" lon="0.24682">
        <ele>60.6</ele>
        <time>2022-09-23T14:15:56Z</time>
      </trkpt>
      <trkpt lat="44.06676" lon="0.24686">
        <ele>61.2</ele>
        <time>2022-09-23T14:16:00Z</time>
      </trkpt>
      <trkpt lat="44.06669" lon="0.24691">
        <ele>62.1</ele>
        <time>2022-09-23T14:16:13Z</time>
      </trkpt>
      <trkpt lat="44.06665" lon="0.24693">
        <ele>62.4</ele>
        <time>2022-09-23T14:16:16Z</time>
      </trkpt>
      <trkpt lat="44.06659" lon="0.24695">
        <ele>62.3</ele>
        <time>2022-09-23T14:16:29Z</time>
      </trkpt>
      <trkpt lat="44.06654" lon="0.24697">
        <ele>61.6</ele>
        <time>2022-09-23T14:16:32Z</time>
      </trkpt>
      <trkpt lat="44.06648" lon="0.247">
        <ele>60.1</ele>
        <time>2022-09-23T14:16:41Z</time>
      </trkpt>
      <trkpt lat="44.06644" lon="0.24704">
        <ele>59.2</ele>
        <time>2022-09-23T14:16:44Z</time>
      </trkpt>
      <trkpt lat="44.06638" lon="0.2471">
        <ele>57.5</ele>
        <time>2022-09-23T14:16:55Z</time>
      </trkpt>
      <trkpt lat="44.06633" lon="0.24714">
        <ele>56.9</ele>
        <time>2022-09-23T14:16:58Z</time>
      </trkpt>
      <trkpt lat="44.06627" lon="0.24719">
        <ele>56</ele>
        <time>2022-09-23T14:17:07Z</time>
      </trkpt>
      <trkpt lat="44.06623" lon="0.24722">
        <ele>55.9</ele>
        <time>2022-09-23T14:17:10Z</time>
      </trkpt>
      <trkpt lat="44.06617" lon="0.24727">
        <ele>55.3</ele>
        <time>2022-09-23T14:17:17Z</time>
      </trkpt>
      <trkpt lat="44.06614" lon="0.24731">
        <ele>54.9</ele>
        <time>2022-09-23T14:17:20Z</time>
      </trkpt>
      <trkpt lat="44.06607" lon="0.24736">
        <ele>54.9</ele>
        <time>2022-09-23T14:17:26Z</time>
      </trkpt>
      <trkpt lat="44.066" lon="0.24741">
        <ele>55.5</ele>
        <time>2022-09-23T14:17:29Z</time>
      </trkpt>
      <trkpt lat="44.06595" lon="0.24745">
        <ele>56.6</ele>
        <time>2022-09-23T14:17:32Z</time>
      </trkpt>
      <trkpt lat="44.06589" lon="0.24748">
        <ele>57.7</ele>
        <time>2022-09-23T14:17:35Z</time>
      </trkpt>
      <trkpt lat="44.06584" lon="0.24753">
        <ele>58.6</ele>
        <time>2022-09-23T14:17:38Z</time>
      </trkpt>
      <trkpt lat="44.0658" lon="0.24758">
        <ele>59.5</ele>
        <time>2022-09-23T14:17:41Z</time>
      </trkpt>
      <trkpt lat="44.06575" lon="0.24761">
        <ele>60.5</ele>
        <time>2022-09-23T14:17:48Z</time>
      </trkpt>
      <trkpt lat="44.06568" lon="0.24767">
        <ele>61.1</ele>
        <time>2022-09-23T14:18:08Z</time>
      </trkpt>
      <trkpt lat="44.06563" lon="0.24772">
        <ele>61</ele>
        <time>2022-09-23T14:18:11Z</time>
      </trkpt>
      <trkpt lat="44.06558" lon="0.24779">
        <ele>61</ele>
        <time>2022-09-23T14:18:21Z</time>
      </trkpt>
      <trkpt lat="44.06554" lon="0.24784">
        <ele>61.1</ele>
        <time>2022-09-23T14:18:24Z</time>
      </trkpt>
      <trkpt lat="44.06548" lon="0.2479">
        <ele>61.5</ele>
        <time>2022-09-23T14:18:29Z</time>
      </trkpt>
      <trkpt lat="44.06542" lon="0.24795">
        <ele>61.9</ele>
        <time>2022-09-23T14:18:32Z</time>
      </trkpt>
      <trkpt lat="44.06538" lon="0.248">
        <ele>62.3</ele>
        <time>2022-09-23T14:18:35Z</time>
      </trkpt>
      <trkpt lat="44.06532" lon="0.24804">
        <ele>62.7</ele>
        <time>2022-09-23T14:18:38Z</time>
      </trkpt>
      <trkpt lat="44.06528" lon="0.24808">
        <ele>63.7</ele>
        <time>2022-09-23T14:18:42Z</time>
      </trkpt>
      <trkpt lat="44.06523" lon="0.24813">
        <ele>65.4</ele>
        <time>2022-09-23T14:18:52Z</time>
      </trkpt>
      <trkpt lat="44.06519" lon="0.24817">
        <ele>66.4</ele>
        <time>2022-09-23T14:18:56Z</time>
      </trkpt>
      <trkpt lat="44.06514" lon="0.24817">
        <ele>67</ele>
        <time>2022-09-23T14:19:04Z</time>
      </trkpt>
      <trkpt lat="44.06509" lon="0.24818">
        <ele>67</ele>
        <time>2022-09-23T14:19:08Z</time>
      </trkpt>
      <trkpt lat="44.06503" lon="0.2482">
        <ele>67</ele>
        <time>2022-09-23T14:19:15Z</time>
      </trkpt>
      <trkpt lat="44.06498" lon="0.24822">
        <ele>67</ele>
        <time>2022-09-23T14:19:18Z</time>
      </trkpt>
      <trkpt lat="44.06491" lon="0.24824">
        <ele>66.6</ele>
        <time>2022-09-23T14:19:28Z</time>
      </trkpt>
      <trkpt lat="44.06486" lon="0.24829">
        <ele>66.4</ele>
        <time>2022-09-23T14:19:31Z</time>
      </trkpt>
      <trkpt lat="44.06479" lon="0.24834">
        <ele>66.4</ele>
        <time>2022-09-23T14:19:43Z</time>
      </trkpt>
      <trkpt lat="44.06475" lon="0.24837">
        <ele>66.8</ele>
        <time>2022-09-23T14:19:46Z</time>
      </trkpt>
      <trkpt lat="44.06469" lon="0.24843">
        <ele>68.3</ele>
        <time>2022-09-23T14:19:57Z</time>
      </trkpt>
      <trkpt lat="44.06462" lon="0.24849">
        <ele>69.6</ele>
        <time>2022-09-23T14:20:00Z</time>
      </trkpt>
      <trkpt lat="44.06459" lon="0.24853">
        <ele>70.8</ele>
        <time>2022-09-23T14:20:03Z</time>
      </trkpt>
      <trkpt lat="44.06453" lon="0.24859">
        <ele>74</ele>
        <time>2022-09-23T14:20:17Z</time>
      </trkpt>
      <trkpt lat="44.06448" lon="0.24862">
        <ele>74.7</ele>
        <time>2022-09-23T14:20:20Z</time>
      </trkpt>
      <trkpt lat="44.06443" lon="0.24866">
        <ele>75.6</ele>
        <time>2022-09-23T14:20:24Z</time>
      </trkpt>
      <trkpt lat="44.06438" lon="0.24871">
        <ele>76.6</ele>
        <time>2022-09-23T14:20:27Z</time>
      </trkpt>
      <trkpt lat="44.06434" lon="0.24878">
        <ele>78.5</ele>
        <time>2022-09-23T14:20:36Z</time>
      </trkpt>
      <trkpt lat="44.0643" lon="0.24882">
        <ele>79.6</ele>
        <time>2022-09-23T14:20:41Z</time>
      </trkpt>
      <trkpt lat="44.06426" lon="0.24887">
        <ele>80.9</ele>
        <time>2022-09-23T14:20:54Z</time>
      </trkpt>
      <trkpt lat="44.06422" lon="0.24892">
        <ele>81.1</ele>
        <time>2022-09-23T14:20:57Z</time>
      </trkpt>
      <trkpt lat="44.06417" lon="0.24901">
        <ele>81.4</ele>
        <time>2022-09-23T14:21:05Z</time>
      </trkpt>
      <trkpt lat="44.06414" lon="0.24908">
        <ele>81.5</ele>
        <time>2022-09-23T14:21:08Z</time>
      </trkpt>
      <trkpt lat="44.06411" lon="0.24914">
        <ele>81.7</ele>
        <time>2022-09-23T14:21:11Z</time>
      </trkpt>
      <trkpt lat="44.06407" lon="0.2492">
        <ele>82.3</ele>
        <time>2022-09-23T14:21:16Z</time>
      </trkpt>
      <trkpt lat="44.06403" lon="0.24925">
        <ele>83.1</ele>
        <time>2022-09-23T14:21:19Z</time>
      </trkpt>
      <trkpt lat="44.06396" lon="0.24931">
        <ele>84.6</ele>
        <time>2022-09-23T14:21:33Z</time>
      </trkpt>
      <trkpt lat="44.06392" lon="0.24935">
        <ele>84.9</ele>
        <time>2022-09-23T14:21:36Z</time>
      </trkpt>
      <trkpt lat="44.06386" lon="0.24941">
        <ele>85.9</ele>
        <time>2022-09-23T14:21:44Z</time>
      </trkpt>
      <trkpt lat="44.06381" lon="0.24946">
        <ele>86.6</ele>
        <time>2022-09-23T14:21:47Z</time>
      </trkpt>
      <trkpt lat="44.06375" lon="0.24952">
        <ele>88</ele>
        <time>2022-09-23T14:21:57Z</time>
      </trkpt>
      <trkpt lat="44.06371" lon="0.24956">
        <ele>88.3</ele>
        <time>2022-09-23T14:22:00Z</time>
      </trkpt>
      <trkpt lat="44.06364" lon="0.2496">
        <ele>88</ele>
        <time>2022-09-23T14:22:11Z</time>
      </trkpt>
      <trkpt lat="44.0636" lon="0.24963">
        <ele>87.4</ele>
        <time>2022-09-23T14:22:14Z</time>
      </trkpt>
      <trkpt lat="44.06354" lon="0.24967">
        <ele>86.5</ele>
        <time>2022-09-23T14:22:25Z</time>
      </trkpt>
      <trkpt lat="44.06349" lon="0.24971">
        <ele>87</ele>
        <time>2022-09-23T14:22:28Z</time>
      </trkpt>
      <trkpt lat="44.06343" lon="0.24976">
        <ele>88.1</ele>
        <time>2022-09-23T14:22:33Z</time>
      </trkpt>
      <trkpt lat="44.06339" lon="0.24981">
        <ele>89.2</ele>
        <time>2022-09-23T14:22:37Z</time>
      </trkpt>
      <trkpt lat="44.06344" lon="0.24978">
        <ele>92</ele>
        <time>2022-09-23T14:24:54Z</time>
      </trkpt>
      <trkpt lat="44.0634" lon="0.24981">
        <ele>95.2</ele>
        <time>2022-09-23T14:25:55Z</time>
      </trkpt>
      <trkpt lat="44.06333" lon="0.24984">
        <ele>98</ele>
        <time>2022-09-23T14:31:36Z</time>
      </trkpt>
      <trkpt lat="44.06326" lon="0.24989">
        <ele>101.2</ele>
        <time>2022-09-23T14:32:54Z</time>
      </trkpt>
      <trkpt lat="44.06321" lon="0.24993">
        <ele>100.8</ele>
        <time>2022-09-23T14:32:57Z</time>
      </trkpt>
      <trkpt lat="44.06317" lon="0.24997">
        <ele>100.1</ele>
        <time>2022-09-23T14:33:01Z</time>
      </trkpt>
      <trkpt lat="44.06312" lon="0.24999">
        <ele>99.2</ele>
        <time>2022-09-23T14:33:06Z</time>
      </trkpt>
      <trkpt lat="44.06307" lon="0.25002">
        <ele>98.3</ele>
        <time>2022-09-23T14:33:11Z</time>
      </trkpt>
      <trkpt lat="44.06302" lon="0.25003">
        <ele>96.8</ele>
        <time>2022-09-23T14:33:17Z</time>
      </trkpt>
      <trkpt lat="44.06296" lon="0.25003">
        <ele>95.4</ele>
        <time>2022-09-23T14:33:22Z</time>
      </trkpt>
      <trkpt lat="44.06291" lon="0.25005">
        <ele>94.6</ele>
        <time>2022-09-23T14:33:25Z</time>
      </trkpt>
      <trkpt lat="44.06286" lon="0.25006">
        <ele>94.1</ele>
        <time>2022-09-23T14:33:28Z</time>
      </trkpt>
      <trkpt lat="44.06281" lon="0.25007">
        <ele>94</ele>
        <time>2022-09-23T14:33:32Z</time>
      </trkpt>
      <trkpt lat="44.06275" lon="0.25008">
        <ele>94.2</ele>
        <time>2022-09-23T14:33:36Z</time>
      </trkpt>
      <trkpt lat="44.0627" lon="0.2501">
        <ele>94.3</ele>
        <time>2022-09-23T14:33:39Z</time>
      </trkpt>
      <trkpt lat="44.06265" lon="0.25012">
        <ele>94.8</ele>
        <time>2022-09-23T14:33:42Z</time>
      </trkpt>
      <trkpt lat="44.0626" lon="0.25014">
        <ele>95.2</ele>
        <time>2022-09-23T14:33:46Z</time>
      </trkpt>
      <trkpt lat="44.06254" lon="0.25016">
        <ele>95.6</ele>
        <time>2022-09-23T14:33:50Z</time>
      </trkpt>
      <trkpt lat="44.0625" lon="0.25019">
        <ele>96.7</ele>
        <time>2022-09-23T14:33:54Z</time>
      </trkpt>
      <trkpt lat="44.06246" lon="0.25021">
        <ele>97.7</ele>
        <time>2022-09-23T14:33:58Z</time>
      </trkpt>
      <trkpt lat="44.0624" lon="0.25024">
        <ele>98.3</ele>
        <time>2022-09-23T14:34:02Z</time>
      </trkpt>
      <trkpt lat="44.06236" lon="0.25027">
        <ele>98.8</ele>
        <time>2022-09-23T14:34:05Z</time>
      </trkpt>
      <trkpt lat="44.06231" lon="0.2503">
        <ele>99.3</ele>
        <time>2022-09-23T14:34:09Z</time>
      </trkpt>
      <trkpt lat="44.06226" lon="0.25035">
        <ele>99.5</ele>
        <time>2022-09-23T14:34:14Z</time>
      </trkpt>
      <trkpt lat="44.06223" lon="0.2504">
        <ele>99.6</ele>
        <time>2022-09-23T14:34:18Z</time>
      </trkpt>
      <trkpt lat="44.0622" lon="0.25045">
        <ele>99.8</ele>
        <time>2022-09-23T14:34:21Z</time>
      </trkpt>
      <trkpt lat="44.06217" lon="0.25051">
        <ele>100</ele>
        <time>2022-09-23T14:34:25Z</time>
      </trkpt>
      <trkpt lat="44.06214" lon="0.25057">
        <ele>100.3</ele>
        <time>2022-09-23T14:34:29Z</time>
      </trkpt>
      <trkpt lat="44.06212" lon="0.25062">
        <ele>100.6</ele>
        <time>2022-09-23T14:34:33Z</time>
      </trkpt>
      <trkpt lat="44.06209" lon="0.25068">
        <ele>101.1</ele>
        <time>2022-09-23T14:34:37Z</time>
      </trkpt>
      <trkpt lat="44.06206" lon="0.25073">
        <ele>102.4</ele>
        <time>2022-09-23T14:34:42Z</time>
      </trkpt>
      <trkpt lat="44.062" lon="0.25078">
        <ele>103.4</ele>
        <time>2022-09-23T14:34:49Z</time>
      </trkpt>
      <trkpt lat="44.06195" lon="0.25082">
        <ele>103</ele>
        <time>2022-09-23T14:34:52Z</time>
      </trkpt>
      <trkpt lat="44.0619" lon="0.25086">
        <ele>102.3</ele>
        <time>2022-09-23T14:34:55Z</time>
      </trkpt>
      <trkpt lat="44.06185" lon="0.25089">
        <ele>101.5</ele>
        <time>2022-09-23T14:34:59Z</time>
      </trkpt>
      <trkpt lat="44.0618" lon="0.2509">
        <ele>101</ele>
        <time>2022-09-23T14:35:03Z</time>
      </trkpt>
      <trkpt lat="44.06175" lon="0.25092">
        <ele>100.9</ele>
        <time>2022-09-23T14:35:07Z</time>
      </trkpt>
      <trkpt lat="44.06169" lon="0.25092">
        <ele>101</ele>
        <time>2022-09-23T14:35:11Z</time>
      </trkpt>
      <trkpt lat="44.06164" lon="0.25092">
        <ele>101.1</ele>
        <time>2022-09-23T14:35:15Z</time>
      </trkpt>
      <trkpt lat="44.06159" lon="0.25092">
        <ele>100.8</ele>
        <time>2022-09-23T14:35:19Z</time>
      </trkpt>
      <trkpt lat="44.06154" lon="0.25091">
        <ele>100.6</ele>
        <time>2022-09-23T14:35:23Z</time>
      </trkpt>
      <trkpt lat="44.0615" lon="0.2509">
        <ele>100.5</ele>
        <time>2022-09-23T14:35:27Z</time>
      </trkpt>
      <trkpt lat="44.06144" lon="0.25091">
        <ele>100.8</ele>
        <time>2022-09-23T14:35:31Z</time>
      </trkpt>
      <trkpt lat="44.06139" lon="0.25091">
        <ele>101.2</ele>
        <time>2022-09-23T14:35:34Z</time>
      </trkpt>
      <trkpt lat="44.06135" lon="0.25091">
        <ele>101.7</ele>
        <time>2022-09-23T14:35:37Z</time>
      </trkpt>
      <trkpt lat="44.0613" lon="0.25092">
        <ele>102.4</ele>
        <time>2022-09-23T14:35:41Z</time>
      </trkpt>
      <trkpt lat="44.06124" lon="0.25093">
        <ele>102.8</ele>
        <time>2022-09-23T14:35:45Z</time>
      </trkpt>
      <trkpt lat="44.06119" lon="0.25095">
        <ele>102.9</ele>
        <time>2022-09-23T14:35:49Z</time>
      </trkpt>
      <trkpt lat="44.06115" lon="0.25099">
        <ele>102.7</ele>
        <time>2022-09-23T14:35:53Z</time>
      </trkpt>
      <trkpt lat="44.06111" lon="0.25103">
        <ele>102.6</ele>
        <time>2022-09-23T14:35:57Z</time>
      </trkpt>
      <trkpt lat="44.06107" lon="0.25106">
        <ele>102.4</ele>
        <time>2022-09-23T14:36:01Z</time>
      </trkpt>
      <trkpt lat="44.06103" lon="0.2511">
        <ele>102.2</ele>
        <time>2022-09-23T14:36:05Z</time>
      </trkpt>
      <trkpt lat="44.06099" lon="0.25114">
        <ele>102.2</ele>
        <time>2022-09-23T14:36:09Z</time>
      </trkpt>
      <trkpt lat="44.06094" lon="0.25116">
        <ele>102.2</ele>
        <time>2022-09-23T14:36:14Z</time>
      </trkpt>
      <trkpt lat="44.06089" lon="0.25118">
        <ele>101.6</ele>
        <time>2022-09-23T14:36:18Z</time>
      </trkpt>
      <trkpt lat="44.06084" lon="0.2512">
        <ele>101.3</ele>
        <time>2022-09-23T14:36:21Z</time>
      </trkpt>
      <trkpt lat="44.0608" lon="0.25122">
        <ele>100.8</ele>
        <time>2022-09-23T14:36:24Z</time>
      </trkpt>
      <trkpt lat="44.06076" lon="0.25125">
        <ele>100.3</ele>
        <time>2022-09-23T14:36:28Z</time>
      </trkpt>
      <trkpt lat="44.06071" lon="0.25129">
        <ele>100.2</ele>
        <time>2022-09-23T14:36:32Z</time>
      </trkpt>
      <trkpt lat="44.06066" lon="0.25132">
        <ele>100.6</ele>
        <time>2022-09-23T14:36:38Z</time>
      </trkpt>
      <trkpt lat="44.06062" lon="0.25134">
        <ele>100.8</ele>
        <time>2022-09-23T14:36:42Z</time>
      </trkpt>
      <trkpt lat="44.06057" lon="0.25136">
        <ele>100.8</ele>
        <time>2022-09-23T14:36:46Z</time>
      </trkpt>
      <trkpt lat="44.06052" lon="0.2514">
        <ele>100.8</ele>
        <time>2022-09-23T14:36:50Z</time>
      </trkpt>
      <trkpt lat="44.06048" lon="0.25143">
        <ele>100.2</ele>
        <time>2022-09-23T14:36:54Z</time>
      </trkpt>
      <trkpt lat="44.06044" lon="0.25147">
        <ele>99.2</ele>
        <time>2022-09-23T14:36:58Z</time>
      </trkpt>
      <trkpt lat="44.0604" lon="0.25152">
        <ele>98.1</ele>
        <time>2022-09-23T14:37:03Z</time>
      </trkpt>
      <trkpt lat="44.06035" lon="0.25155">
        <ele>97.7</ele>
        <time>2022-09-23T14:37:06Z</time>
      </trkpt>
      <trkpt lat="44.06031" lon="0.25158">
        <ele>97.6</ele>
        <time>2022-09-23T14:37:09Z</time>
      </trkpt>
      <trkpt lat="44.06027" lon="0.25162">
        <ele>97.5</ele>
        <time>2022-09-23T14:37:12Z</time>
      </trkpt>
      <trkpt lat="44.06023" lon="0.25165">
        <ele>97.5</ele>
        <time>2022-09-23T14:37:16Z</time>
      </trkpt>
      <trkpt lat="44.06018" lon="0.25169">
        <ele>97.7</ele>
        <time>2022-09-23T14:37:21Z</time>
      </trkpt>
      <trkpt lat="44.06013" lon="0.25172">
        <ele>97.9</ele>
        <time>2022-09-23T14:37:25Z</time>
      </trkpt>
      <trkpt lat="44.06008" lon="0.25174">
        <ele>98.1</ele>
        <time>2022-09-23T14:37:29Z</time>
      </trkpt>
      <trkpt lat="44.06004" lon="0.25179">
        <ele>98.5</ele>
        <time>2022-09-23T14:37:34Z</time>
      </trkpt>
      <trkpt lat="44.06" lon="0.25184">
        <ele>99.3</ele>
        <time>2022-09-23T14:37:40Z</time>
      </trkpt>
      <trkpt lat="44.05998" lon="0.2519">
        <ele>99.6</ele>
        <time>2022-09-23T14:37:45Z</time>
      </trkpt>
      <trkpt lat="44.05997" lon="0.25197">
        <ele>100.3</ele>
        <time>2022-09-23T14:37:49Z</time>
      </trkpt>
      <trkpt lat="44.05997" lon="0.25204">
        <ele>101.5</ele>
        <time>2022-09-23T14:37:54Z</time>
      </trkpt>
      <trkpt lat="44.05999" lon="0.2521">
        <ele>102.8</ele>
        <time>2022-09-23T14:37:58Z</time>
      </trkpt>
      <trkpt lat="44.06001" lon="0.25218">
        <ele>104.3</ele>
        <time>2022-09-23T14:38:02Z</time>
      </trkpt>
      <trkpt lat="44.06002" lon="0.25225">
        <ele>105.8</ele>
        <time>2022-09-23T14:38:06Z</time>
      </trkpt>
      <trkpt lat="44.06004" lon="0.2523">
        <ele>107.1</ele>
        <time>2022-09-23T14:38:10Z</time>
      </trkpt>
      <trkpt lat="44.06006" lon="0.25237">
        <ele>107.7</ele>
        <time>2022-09-23T14:38:14Z</time>
      </trkpt>
      <trkpt lat="44.06006" lon="0.25243">
        <ele>108.5</ele>
        <time>2022-09-23T14:38:18Z</time>
      </trkpt>
      <trkpt lat="44.06005" lon="0.2525">
        <ele>109.4</ele>
        <time>2022-09-23T14:38:23Z</time>
      </trkpt>
      <trkpt lat="44.06002" lon="0.25255">
        <ele>109.6</ele>
        <time>2022-09-23T14:38:27Z</time>
      </trkpt>
      <trkpt lat="44.05998" lon="0.2526">
        <ele>109.5</ele>
        <time>2022-09-23T14:38:31Z</time>
      </trkpt>
      <trkpt lat="44.05994" lon="0.25263">
        <ele>109.4</ele>
        <time>2022-09-23T14:38:35Z</time>
      </trkpt>
      <trkpt lat="44.0599" lon="0.25268">
        <ele>109.1</ele>
        <time>2022-09-23T14:38:40Z</time>
      </trkpt>
      <trkpt lat="44.05986" lon="0.25272">
        <ele>108.7</ele>
        <time>2022-09-23T14:38:44Z</time>
      </trkpt>
      <trkpt lat="44.05981" lon="0.25275">
        <ele>108.4</ele>
        <time>2022-09-23T14:38:48Z</time>
      </trkpt>
      <trkpt lat="44.05977" lon="0.25279">
        <ele>108.2</ele>
        <time>2022-09-23T14:38:52Z</time>
      </trkpt>
      <trkpt lat="44.05973" lon="0.25284">
        <ele>107.9</ele>
        <time>2022-09-23T14:38:57Z</time>
      </trkpt>
      <trkpt lat="44.05969" lon="0.25288">
        <ele>107.7</ele>
        <time>2022-09-23T14:39:01Z</time>
      </trkpt>
      <trkpt lat="44.05965" lon="0.25293">
        <ele>108.1</ele>
        <time>2022-09-23T14:39:06Z</time>
      </trkpt>
      <trkpt lat="44.0596" lon="0.25301">
        <ele>108.5</ele>
        <time>2022-09-23T14:39:19Z</time>
      </trkpt>
      <trkpt lat="44.05956" lon="0.25305">
        <ele>108.3</ele>
        <time>2022-09-23T14:39:22Z</time>
      </trkpt>
      <trkpt lat="44.05949" lon="0.25312">
        <ele>107.8</ele>
        <time>2022-09-23T14:39:30Z</time>
      </trkpt>
      <trkpt lat="44.05945" lon="0.25315">
        <ele>107.6</ele>
        <time>2022-09-23T14:39:33Z</time>
      </trkpt>
      <trkpt lat="44.0594" lon="0.25319">
        <ele>107.4</ele>
        <time>2022-09-23T14:39:37Z</time>
      </trkpt>
      <trkpt lat="44.05934" lon="0.25324">
        <ele>106.9</ele>
        <time>2022-09-23T14:39:45Z</time>
      </trkpt>
      <trkpt lat="44.0593" lon="0.25328">
        <ele>106.5</ele>
        <time>2022-09-23T14:39:48Z</time>
      </trkpt>
      <trkpt lat="44.05926" lon="0.25333">
        <ele>106.1</ele>
        <time>2022-09-23T14:39:51Z</time>
      </trkpt>
      <trkpt lat="44.05922" lon="0.25339">
        <ele>105.8</ele>
        <time>2022-09-23T14:39:55Z</time>
      </trkpt>
      <trkpt lat="44.05918" lon="0.25343">
        <ele>105.6</ele>
        <time>2022-09-23T14:39:59Z</time>
      </trkpt>
      <trkpt lat="44.05915" lon="0.25349">
        <ele>105.7</ele>
        <time>2022-09-23T14:40:03Z</time>
      </trkpt>
      <trkpt lat="44.05911" lon="0.25354">
        <ele>105.9</ele>
        <time>2022-09-23T14:40:07Z</time>
      </trkpt>
      <trkpt lat="44.05909" lon="0.25359">
        <ele>106.2</ele>
        <time>2022-09-23T14:40:14Z</time>
      </trkpt>
      <trkpt lat="44.05906" lon="0.25365">
        <ele>106</ele>
        <time>2022-09-23T14:40:20Z</time>
      </trkpt>
      <trkpt lat="44.05904" lon="0.25372">
        <ele>105.6</ele>
        <time>2022-09-23T14:40:23Z</time>
      </trkpt>
      <trkpt lat="44.05901" lon="0.25381">
        <ele>104.9</ele>
        <time>2022-09-23T14:40:31Z</time>
      </trkpt>
      <trkpt lat="44.05898" lon="0.25388">
        <ele>104.4</ele>
        <time>2022-09-23T14:40:34Z</time>
      </trkpt>
      <trkpt lat="44.05895" lon="0.25394">
        <ele>103.8</ele>
        <time>2022-09-23T14:40:38Z</time>
      </trkpt>
      <trkpt lat="44.05893" lon="0.25403">
        <ele>103.4</ele>
        <time>2022-09-23T14:40:41Z</time>
      </trkpt>
      <trkpt lat="44.05891" lon="0.25408">
        <ele>103.3</ele>
        <time>2022-09-23T14:40:49Z</time>
      </trkpt>
      <trkpt lat="44.05889" lon="0.25418">
        <ele>103</ele>
        <time>2022-09-23T14:40:52Z</time>
      </trkpt>
      <trkpt lat="44.05888" lon="0.25425">
        <ele>102.7</ele>
        <time>2022-09-23T14:40:55Z</time>
      </trkpt>
      <trkpt lat="44.05887" lon="0.25433">
        <ele>102.1</ele>
        <time>2022-09-23T14:40:59Z</time>
      </trkpt>
      <trkpt lat="44.05887" lon="0.25439">
        <ele>101.4</ele>
        <time>2022-09-23T14:41:04Z</time>
      </trkpt>
      <trkpt lat="44.05889" lon="0.25448">
        <ele>100.6</ele>
        <time>2022-09-23T14:41:13Z</time>
      </trkpt>
      <trkpt lat="44.0589" lon="0.25456">
        <ele>100.4</ele>
        <time>2022-09-23T14:41:16Z</time>
      </trkpt>
      <trkpt lat="44.05891" lon="0.25462">
        <ele>100.1</ele>
        <time>2022-09-23T14:41:19Z</time>
      </trkpt>
      <trkpt lat="44.05891" lon="0.25469">
        <ele>99.6</ele>
        <time>2022-09-23T14:41:27Z</time>
      </trkpt>
      <trkpt lat="44.05891" lon="0.25478">
        <ele>99.5</ele>
        <time>2022-09-23T14:41:30Z</time>
      </trkpt>
      <trkpt lat="44.05891" lon="0.25484">
        <ele>99.3</ele>
        <time>2022-09-23T14:41:33Z</time>
      </trkpt>
      <trkpt lat="44.05891" lon="0.25493">
        <ele>99.1</ele>
        <time>2022-09-23T14:41:39Z</time>
      </trkpt>
      <trkpt lat="44.05892" lon="0.25502">
        <ele>98.7</ele>
        <time>2022-09-23T14:41:42Z</time>
      </trkpt>
      <trkpt lat="44.05893" lon="0.25509">
        <ele>98.3</ele>
        <time>2022-09-23T14:41:45Z</time>
      </trkpt>
      <trkpt lat="44.05892" lon="0.25517">
        <ele>97.6</ele>
        <time>2022-09-23T14:41:49Z</time>
      </trkpt>
      <trkpt lat="44.05892" lon="0.25524">
        <ele>97.2</ele>
        <time>2022-09-23T14:41:53Z</time>
      </trkpt>
      <trkpt lat="44.05891" lon="0.25531">
        <ele>97.2</ele>
        <time>2022-09-23T14:41:57Z</time>
      </trkpt>
      <trkpt lat="44.05891" lon="0.25539">
        <ele>97.2</ele>
        <time>2022-09-23T14:42:01Z</time>
      </trkpt>
      <trkpt lat="44.05889" lon="0.25547">
        <ele>97.7</ele>
        <time>2022-09-23T14:42:08Z</time>
      </trkpt>
      <trkpt lat="44.05888" lon="0.25554">
        <ele>98.1</ele>
        <time>2022-09-23T14:42:11Z</time>
      </trkpt>
      <trkpt lat="44.05887" lon="0.25562">
        <ele>98.6</ele>
        <time>2022-09-23T14:42:15Z</time>
      </trkpt>
      <trkpt lat="44.05884" lon="0.25569">
        <ele>98.9</ele>
        <time>2022-09-23T14:42:19Z</time>
      </trkpt>
      <trkpt lat="44.05882" lon="0.25576">
        <ele>98.8</ele>
        <time>2022-09-23T14:42:24Z</time>
      </trkpt>
      <trkpt lat="44.05879" lon="0.25584">
        <ele>98.2</ele>
        <time>2022-09-23T14:42:35Z</time>
      </trkpt>
      <trkpt lat="44.05873" lon="0.25591">
        <ele>97.3</ele>
        <time>2022-09-23T14:42:38Z</time>
      </trkpt>
      <trkpt lat="44.05868" lon="0.256">
        <ele>96.3</ele>
        <time>2022-09-23T14:42:46Z</time>
      </trkpt>
      <trkpt lat="44.05864" lon="0.25609">
        <ele>96.2</ele>
        <time>2022-09-23T14:42:49Z</time>
      </trkpt>
      <trkpt lat="44.05858" lon="0.25617">
        <ele>95.7</ele>
        <time>2022-09-23T14:43:01Z</time>
      </trkpt>
      <trkpt lat="44.05853" lon="0.25622">
        <ele>95</ele>
        <time>2022-09-23T14:43:04Z</time>
      </trkpt>
      <trkpt lat="44.05848" lon="0.25629">
        <ele>93.2</ele>
        <time>2022-09-23T14:43:14Z</time>
      </trkpt>
      <trkpt lat="44.05844" lon="0.25634">
        <ele>92.5</ele>
        <time>2022-09-23T14:43:17Z</time>
      </trkpt>
      <trkpt lat="44.0584" lon="0.2564">
        <ele>90.8</ele>
        <time>2022-09-23T14:43:26Z</time>
      </trkpt>
      <trkpt lat="44.05836" lon="0.25645">
        <ele>90</ele>
        <time>2022-09-23T14:43:30Z</time>
      </trkpt>
      <trkpt lat="44.05831" lon="0.25649">
        <ele>92.2</ele>
        <time>2022-09-23T14:45:38Z</time>
      </trkpt>
      <trkpt lat="44.05827" lon="0.25651">
        <ele>97.5</ele>
        <time>2022-09-23T14:45:46Z</time>
      </trkpt>
      <trkpt lat="44.05822" lon="0.25649">
        <ele>105.7</ele>
        <time>2022-09-23T14:46:21Z</time>
      </trkpt>
      <trkpt lat="44.05819" lon="0.25654">
        <ele>106.6</ele>
        <time>2022-09-23T14:46:26Z</time>
      </trkpt>
      <trkpt lat="44.05815" lon="0.25659">
        <ele>107.2</ele>
        <time>2022-09-23T14:46:30Z</time>
      </trkpt>
      <trkpt lat="44.05817" lon="0.25666">
        <ele>107.4</ele>
        <time>2022-09-23T14:46:35Z</time>
      </trkpt>
      <trkpt lat="44.05819" lon="0.25672">
        <ele>107.2</ele>
        <time>2022-09-23T14:46:41Z</time>
      </trkpt>
      <trkpt lat="44.05818" lon="0.25679">
        <ele>106.5</ele>
        <time>2022-09-23T14:46:47Z</time>
      </trkpt>
      <trkpt lat="44.05817" lon="0.25687">
        <ele>106.2</ele>
        <time>2022-09-23T14:46:53Z</time>
      </trkpt>
      <trkpt lat="44.05818" lon="0.25695">
        <ele>106.7</ele>
        <time>2022-09-23T14:46:57Z</time>
      </trkpt>
      <trkpt lat="44.0582" lon="0.25701">
        <ele>107.3</ele>
        <time>2022-09-23T14:47:00Z</time>
      </trkpt>
      <trkpt lat="44.0582" lon="0.25707">
        <ele>107.9</ele>
        <time>2022-09-23T14:47:04Z</time>
      </trkpt>
      <trkpt lat="44.05819" lon="0.25715">
        <ele>108.4</ele>
        <time>2022-09-23T14:47:09Z</time>
      </trkpt>
      <trkpt lat="44.05821" lon="0.25722">
        <ele>108.7</ele>
        <time>2022-09-23T14:47:14Z</time>
      </trkpt>
      <trkpt lat="44.05823" lon="0.25729">
        <ele>109</ele>
        <time>2022-09-23T14:47:20Z</time>
      </trkpt>
      <trkpt lat="44.05824" lon="0.25735">
        <ele>109.4</ele>
        <time>2022-09-23T14:47:23Z</time>
      </trkpt>
      <trkpt lat="44.05822" lon="0.25747">
        <ele>110.3</ele>
        <time>2022-09-23T14:47:38Z</time>
      </trkpt>
      <trkpt lat="44.05822" lon="0.25755">
        <ele>111.1</ele>
        <time>2022-09-23T14:47:41Z</time>
      </trkpt>
      <trkpt lat="44.05822" lon="0.25762">
        <ele>112.5</ele>
        <time>2022-09-23T14:47:47Z</time>
      </trkpt>
      <trkpt lat="44.05821" lon="0.25769">
        <ele>113.9</ele>
        <time>2022-09-23T14:47:52Z</time>
      </trkpt>
      <trkpt lat="44.05822" lon="0.25775">
        <ele>114.7</ele>
        <time>2022-09-23T14:48:02Z</time>
      </trkpt>
      <trkpt lat="44.05825" lon="0.25781">
        <ele>114.6</ele>
        <time>2022-09-23T14:48:05Z</time>
      </trkpt>
      <trkpt lat="44.05825" lon="0.2579">
        <ele>114.9</ele>
        <time>2022-09-23T14:48:17Z</time>
      </trkpt>
      <trkpt lat="44.05825" lon="0.25797">
        <ele>115.1</ele>
        <time>2022-09-23T14:48:20Z</time>
      </trkpt>
      <trkpt lat="44.05824" lon="0.25807">
        <ele>115.2</ele>
        <time>2022-09-23T14:48:30Z</time>
      </trkpt>
      <trkpt lat="44.05823" lon="0.25815">
        <ele>115</ele>
        <time>2022-09-23T14:48:33Z</time>
      </trkpt>
      <trkpt lat="44.05821" lon="0.25824">
        <ele>114.5</ele>
        <time>2022-09-23T14:48:42Z</time>
      </trkpt>
      <trkpt lat="44.05821" lon="0.25832">
        <ele>114.3</ele>
        <time>2022-09-23T14:48:45Z</time>
      </trkpt>
      <trkpt lat="44.0582" lon="0.25843">
        <ele>113.3</ele>
        <time>2022-09-23T14:48:53Z</time>
      </trkpt>
      <trkpt lat="44.05819" lon="0.25851">
        <ele>112.7</ele>
        <time>2022-09-23T14:48:56Z</time>
      </trkpt>
      <trkpt lat="44.05816" lon="0.2586">
        <ele>111.6</ele>
        <time>2022-09-23T14:49:04Z</time>
      </trkpt>
      <trkpt lat="44.05813" lon="0.25869">
        <ele>111.1</ele>
        <time>2022-09-23T14:49:07Z</time>
      </trkpt>
      <trkpt lat="44.05812" lon="0.25876">
        <ele>110.9</ele>
        <time>2022-09-23T14:49:11Z</time>
      </trkpt>
      <trkpt lat="44.05811" lon="0.25882">
        <ele>111.1</ele>
        <time>2022-09-23T14:49:14Z</time>
      </trkpt>
      <trkpt lat="44.0581" lon="0.25893">
        <ele>111.9</ele>
        <time>2022-09-23T14:49:22Z</time>
      </trkpt>
      <trkpt lat="44.05809" lon="0.259">
        <ele>112.7</ele>
        <time>2022-09-23T14:49:25Z</time>
      </trkpt>
      <trkpt lat="44.05807" lon="0.25906">
        <ele>113.5</ele>
        <time>2022-09-23T14:49:29Z</time>
      </trkpt>
      <trkpt lat="44.05805" lon="0.25912">
        <ele>115.3</ele>
        <time>2022-09-23T14:49:35Z</time>
      </trkpt>
      <trkpt lat="44.05803" lon="0.25919">
        <ele>117.4</ele>
        <time>2022-09-23T14:49:43Z</time>
      </trkpt>
      <trkpt lat="44.05802" lon="0.25927">
        <ele>118.5</ele>
        <time>2022-09-23T14:49:46Z</time>
      </trkpt>
      <trkpt lat="44.058" lon="0.25936">
        <ele>120.1</ele>
        <time>2022-09-23T14:49:50Z</time>
      </trkpt>
      <trkpt lat="44.05799" lon="0.25943">
        <ele>121.4</ele>
        <time>2022-09-23T14:49:53Z</time>
      </trkpt>
      <trkpt lat="44.05798" lon="0.2595">
        <ele>117.2</ele>
        <time>2022-09-23T14:50:10Z</time>
      </trkpt>
      <trkpt lat="44.05794" lon="0.25959">
        <ele>119</ele>
        <time>2022-09-23T14:50:22Z</time>
      </trkpt>
      <trkpt lat="44.05791" lon="0.25965">
        <ele>121.9</ele>
        <time>2022-09-23T14:50:25Z</time>
      </trkpt>
      <trkpt lat="44.05785" lon="0.25966">
        <ele>128.5</ele>
        <time>2022-09-23T14:50:53Z</time>
      </trkpt>
      <trkpt lat="44.0578" lon="0.25969">
        <ele>128.6</ele>
        <time>2022-09-23T14:50:56Z</time>
      </trkpt>
      <trkpt lat="44.05776" lon="0.25973">
        <ele>128.6</ele>
        <time>2022-09-23T14:51:00Z</time>
      </trkpt>
      <trkpt lat="44.05773" lon="0.25978">
        <ele>128.1</ele>
        <time>2022-09-23T14:51:07Z</time>
      </trkpt>
      <trkpt lat="44.05768" lon="0.25983">
        <ele>127.2</ele>
        <time>2022-09-23T14:51:10Z</time>
      </trkpt>
      <trkpt lat="44.05764" lon="0.25986">
        <ele>125.6</ele>
        <time>2022-09-23T14:51:14Z</time>
      </trkpt>
      <trkpt lat="44.0576" lon="0.25991">
        <ele>124</ele>
        <time>2022-09-23T14:51:19Z</time>
      </trkpt>
      <trkpt lat="44.05758" lon="0.25997">
        <ele>122.4</ele>
        <time>2022-09-23T14:51:27Z</time>
      </trkpt>
      <trkpt lat="44.05754" lon="0.26002">
        <ele>121.2</ele>
        <time>2022-09-23T14:51:31Z</time>
      </trkpt>
      <trkpt lat="44.0575" lon="0.26007">
        <ele>120.2</ele>
        <time>2022-09-23T14:51:34Z</time>
      </trkpt>
      <trkpt lat="44.05747" lon="0.26011">
        <ele>118.5</ele>
        <time>2022-09-23T14:51:38Z</time>
      </trkpt>
      <trkpt lat="44.05742" lon="0.26017">
        <ele>116.4</ele>
        <time>2022-09-23T14:51:44Z</time>
      </trkpt>
      <trkpt lat="44.05737" lon="0.26022">
        <ele>115.1</ele>
        <time>2022-09-23T14:51:48Z</time>
      </trkpt>
      <trkpt lat="44.05733" lon="0.26025">
        <ele>115</ele>
        <time>2022-09-23T14:51:52Z</time>
      </trkpt>
      <trkpt lat="44.05728" lon="0.26028">
        <ele>115.8</ele>
        <time>2022-09-23T14:51:56Z</time>
      </trkpt>
      <trkpt lat="44.0572" lon="0.26031">
        <ele>117.1</ele>
        <time>2022-09-23T14:52:06Z</time>
      </trkpt>
      <trkpt lat="44.05715" lon="0.26034">
        <ele>117.4</ele>
        <time>2022-09-23T14:52:09Z</time>
      </trkpt>
      <trkpt lat="44.05708" lon="0.26038">
        <ele>117.6</ele>
        <time>2022-09-23T14:52:21Z</time>
      </trkpt>
      <trkpt lat="44.05704" lon="0.26042">
        <ele>117.5</ele>
        <time>2022-09-23T14:52:25Z</time>
      </trkpt>
      <trkpt lat="44.05699" lon="0.26047">
        <ele>117.3</ele>
        <time>2022-09-23T14:52:38Z</time>
      </trkpt>
      <trkpt lat="44.05694" lon="0.26052">
        <ele>117.4</ele>
        <time>2022-09-23T14:52:41Z</time>
      </trkpt>
      <trkpt lat="44.0569" lon="0.26057">
        <ele>117.3</ele>
        <time>2022-09-23T14:52:45Z</time>
      </trkpt>
      <trkpt lat="44.05685" lon="0.26063">
        <ele>117.4</ele>
        <time>2022-09-23T14:52:48Z</time>
      </trkpt>
      <trkpt lat="44.05681" lon="0.26067">
        <ele>117.8</ele>
        <time>2022-09-23T14:52:52Z</time>
      </trkpt>
      <trkpt lat="44.05677" lon="0.26072">
        <ele>118</ele>
        <time>2022-09-23T14:52:57Z</time>
      </trkpt>
      <trkpt lat="44.05674" lon="0.26076">
        <ele>118</ele>
        <time>2022-09-23T14:53:04Z</time>
      </trkpt>
      <trkpt lat="44.05669" lon="0.26079">
        <ele>117.9</ele>
        <time>2022-09-23T14:53:11Z</time>
      </trkpt>
      <trkpt lat="44.05664" lon="0.26082">
        <ele>117.7</ele>
        <time>2022-09-23T14:53:14Z</time>
      </trkpt>
      <trkpt lat="44.05658" lon="0.26086">
        <ele>117.3</ele>
        <time>2022-09-23T14:53:21Z</time>
      </trkpt>
      <trkpt lat="44.05653" lon="0.2609">
        <ele>116.8</ele>
        <time>2022-09-23T14:53:24Z</time>
      </trkpt>
      <trkpt lat="44.05648" lon="0.26093">
        <ele>116.3</ele>
        <time>2022-09-23T14:53:27Z</time>
      </trkpt>
      <trkpt lat="44.05644" lon="0.26096">
        <ele>116.1</ele>
        <time>2022-09-23T14:53:31Z</time>
      </trkpt>
      <trkpt lat="44.05638" lon="0.261">
        <ele>116.6</ele>
        <time>2022-09-23T14:53:44Z</time>
      </trkpt>
      <trkpt lat="44.05634" lon="0.26103">
        <ele>117.5</ele>
        <time>2022-09-23T14:53:47Z</time>
      </trkpt>
    </trkseg>
  </trk>
</gpx>